<?xml version="1.0" encoding="UTF-8" standalone="no" ?>
<gpx xmlns="http://www.topografix.com/GPX/1/1" xmlns:xsi="http://www.w3.org/2001/XMLSchema-instance" xsi:schemaLocation="http://www.topografix.com/GPX/1/1 http://www.topografix.com/GPX/1/1/gpx.xsd" version="1.1" creator="VisuGPX - https://www.visugpx.com">
  <metadata>
    <name>Rando VTT Uzes castillon vers</name>
    <desc><![CDATA[Rando VTT Uzes castillon vers]]></desc>
  </metadata>
  <trk>
    <name><![CDATA[ACTIVE LOG 002]]></name>
    <trkseg>
      <trkpt lat="44.01494" lon="4.42866">
        <ele>83.77197265625</ele>
        <time>2011-07-25T08:01:27Z</time>
      </trkpt>
      <trkpt lat="44.01476" lon="4.42804">
        <ele>82.810791015625</ele>
        <time>2011-07-25T08:01:50Z</time>
      </trkpt>
      <trkpt lat="44.01446" lon="4.42766">
        <ele>82.330078125</ele>
        <time>2011-07-25T08:02:05Z</time>
      </trkpt>
      <trkpt lat="44.01405" lon="4.42737">
        <ele>82.330078125</ele>
        <time>2011-07-25T08:02:21Z</time>
      </trkpt>
      <trkpt lat="44.01371" lon="4.42694">
        <ele>82.330078125</ele>
        <time>2011-07-25T08:02:39Z</time>
      </trkpt>
      <trkpt lat="44.01344" lon="4.42643">
        <ele>81.849365234375</ele>
        <time>2011-07-25T08:03:00Z</time>
      </trkpt>
      <trkpt lat="44.01303" lon="4.4264">
        <ele>83.77197265625</ele>
        <time>2011-07-25T08:03:24Z</time>
      </trkpt>
      <trkpt lat="44.01258" lon="4.42663">
        <ele>92.423950195312</ele>
        <time>2011-07-25T08:04:07Z</time>
      </trkpt>
      <trkpt lat="44.01214" lon="4.42684">
        <ele>98.672485351562</ele>
        <time>2011-07-25T08:05:05Z</time>
      </trkpt>
      <trkpt lat="44.01172" lon="4.427">
        <ele>107.80505371094</ele>
        <time>2011-07-25T08:06:20Z</time>
      </trkpt>
      <trkpt lat="44.01128" lon="4.42714">
        <ele>116.45678710938</ele>
        <time>2011-07-25T08:07:16Z</time>
      </trkpt>
      <trkpt lat="44.01089" lon="4.42741">
        <ele>122.22473144531</ele>
        <time>2011-07-25T08:08:16Z</time>
      </trkpt>
      <trkpt lat="44.01047" lon="4.42735">
        <ele>130.39599609375</ele>
        <time>2011-07-25T08:09:45Z</time>
      </trkpt>
      <trkpt lat="44.01042" lon="4.42765">
        <ele>137.60583496094</ele>
        <time>2011-07-25T08:11:14Z</time>
      </trkpt>
      <trkpt lat="44.0108" lon="4.42804">
        <ele>139.52844238281</ele>
        <time>2011-07-25T08:11:47Z</time>
      </trkpt>
      <trkpt lat="44.01124" lon="4.4282">
        <ele>141.45104980469</ele>
        <time>2011-07-25T08:12:12Z</time>
      </trkpt>
      <trkpt lat="44.01164" lon="4.42795">
        <ele>141.93176269531</ele>
        <time>2011-07-25T08:12:33Z</time>
      </trkpt>
      <trkpt lat="44.01208" lon="4.42815">
        <ele>144.81579589844</ele>
        <time>2011-07-25T08:12:55Z</time>
      </trkpt>
      <trkpt lat="44.01185" lon="4.42867">
        <ele>147.69970703125</ele>
        <time>2011-07-25T08:13:18Z</time>
      </trkpt>
      <trkpt lat="44.0116" lon="4.42922">
        <ele>151.544921875</ele>
        <time>2011-07-25T08:13:45Z</time>
      </trkpt>
      <trkpt lat="44.01132" lon="4.42973">
        <ele>157.31286621094</ele>
        <time>2011-07-25T08:14:14Z</time>
      </trkpt>
      <trkpt lat="44.01109" lon="4.43028">
        <ele>163.5615234375</ele>
        <time>2011-07-25T08:14:44Z</time>
      </trkpt>
      <trkpt lat="44.01098" lon="4.43089">
        <ele>167.88732910156</ele>
        <time>2011-07-25T08:15:40Z</time>
      </trkpt>
      <trkpt lat="44.01078" lon="4.4314">
        <ele>168.36804199219</ele>
        <time>2011-07-25T08:17:21Z</time>
      </trkpt>
      <trkpt lat="44.01037" lon="4.43169">
        <ele>167.88732910156</ele>
        <time>2011-07-25T08:17:40Z</time>
      </trkpt>
      <trkpt lat="44.01007" lon="4.43223">
        <ele>164.04211425781</ele>
        <time>2011-07-25T08:17:56Z</time>
      </trkpt>
      <trkpt lat="44.0101" lon="4.43281">
        <ele>167.40673828125</ele>
        <time>2011-07-25T08:18:15Z</time>
      </trkpt>
      <trkpt lat="44.01023" lon="4.43344">
        <ele>171.25207519531</ele>
        <time>2011-07-25T08:18:42Z</time>
      </trkpt>
      <trkpt lat="44.01022" lon="4.43406">
        <ele>174.13586425781</ele>
        <time>2011-07-25T08:19:57Z</time>
      </trkpt>
      <trkpt lat="44.01028" lon="4.4347">
        <ele>177.98120117188</ele>
        <time>2011-07-25T08:20:21Z</time>
      </trkpt>
      <trkpt lat="44.01022" lon="4.43534">
        <ele>179.90380859375</ele>
        <time>2011-07-25T08:20:46Z</time>
      </trkpt>
      <trkpt lat="44.01015" lon="4.43595">
        <ele>178.94262695312</ele>
        <time>2011-07-25T08:21:04Z</time>
      </trkpt>
      <trkpt lat="44.01015" lon="4.4366">
        <ele>181.82641601562</ele>
        <time>2011-07-25T08:21:21Z</time>
      </trkpt>
      <trkpt lat="44.00998" lon="4.4372">
        <ele>182.30712890625</ele>
        <time>2011-07-25T08:21:39Z</time>
      </trkpt>
      <trkpt lat="44.00985" lon="4.43781">
        <ele>183.26843261719</ele>
        <time>2011-07-25T08:21:55Z</time>
      </trkpt>
      <trkpt lat="44.00974" lon="4.43842">
        <ele>180.38452148438</ele>
        <time>2011-07-25T08:22:08Z</time>
      </trkpt>
      <trkpt lat="44.00945" lon="4.43895">
        <ele>179.90380859375</ele>
        <time>2011-07-25T08:22:20Z</time>
      </trkpt>
      <trkpt lat="44.00923" lon="4.43957">
        <ele>183.26843261719</ele>
        <time>2011-07-25T08:22:35Z</time>
      </trkpt>
      <trkpt lat="44.00908" lon="4.4402">
        <ele>184.22985839844</ele>
        <time>2011-07-25T08:22:51Z</time>
      </trkpt>
      <trkpt lat="44.00899" lon="4.44086">
        <ele>181.82641601562</ele>
        <time>2011-07-25T08:23:04Z</time>
      </trkpt>
      <trkpt lat="44.00886" lon="4.44153">
        <ele>180.865234375</ele>
        <time>2011-07-25T08:23:14Z</time>
      </trkpt>
      <trkpt lat="44.00887" lon="4.44216">
        <ele>180.865234375</ele>
        <time>2011-07-25T08:23:25Z</time>
      </trkpt>
      <trkpt lat="44.009" lon="4.44281">
        <ele>180.865234375</ele>
        <time>2011-07-25T08:23:37Z</time>
      </trkpt>
      <trkpt lat="44.00895" lon="4.44348">
        <ele>182.78784179688</ele>
        <time>2011-07-25T08:23:51Z</time>
      </trkpt>
      <trkpt lat="44.00904" lon="4.44414">
        <ele>184.22985839844</ele>
        <time>2011-07-25T08:24:07Z</time>
      </trkpt>
      <trkpt lat="44.00914" lon="4.44476">
        <ele>185.67175292969</ele>
        <time>2011-07-25T08:24:24Z</time>
      </trkpt>
      <trkpt lat="44.00921" lon="4.44538">
        <ele>186.63317871094</ele>
        <time>2011-07-25T08:24:42Z</time>
      </trkpt>
      <trkpt lat="44.00961" lon="4.44528">
        <ele>187.11376953125</ele>
        <time>2011-07-25T08:25:02Z</time>
      </trkpt>
      <trkpt lat="44.00991" lon="4.44482">
        <ele>185.19116210938</ele>
        <time>2011-07-25T08:25:20Z</time>
      </trkpt>
      <trkpt lat="44.01035" lon="4.4447">
        <ele>184.22985839844</ele>
        <time>2011-07-25T08:25:46Z</time>
      </trkpt>
      <trkpt lat="44.01071" lon="4.44443">
        <ele>182.78784179688</ele>
        <time>2011-07-25T08:26:08Z</time>
      </trkpt>
      <trkpt lat="44.01074" lon="4.44377">
        <ele>180.38452148438</ele>
        <time>2011-07-25T08:26:30Z</time>
      </trkpt>
      <trkpt lat="44.01081" lon="4.44315">
        <ele>176.53930664062</ele>
        <time>2011-07-25T08:28:20Z</time>
      </trkpt>
      <trkpt lat="44.01122" lon="4.44296">
        <ele>175.57788085938</ele>
        <time>2011-07-25T08:28:46Z</time>
      </trkpt>
      <trkpt lat="44.01151" lon="4.44261">
        <ele>172.21325683594</ele>
        <time>2011-07-25T08:30:19Z</time>
      </trkpt>
      <trkpt lat="44.01201" lon="4.44271">
        <ele>173.17468261719</ele>
        <time>2011-07-25T08:30:48Z</time>
      </trkpt>
      <trkpt lat="44.01219" lon="4.44305">
        <ele>172.69396972656</ele>
        <time>2011-07-25T08:31:13Z</time>
      </trkpt>
      <trkpt lat="44.01191" lon="4.44351">
        <ele>176.05859375</ele>
        <time>2011-07-25T08:31:38Z</time>
      </trkpt>
      <trkpt lat="44.01163" lon="4.44403">
        <ele>179.42321777344</ele>
        <time>2011-07-25T08:32:06Z</time>
      </trkpt>
      <trkpt lat="44.01141" lon="4.4446">
        <ele>179.90380859375</ele>
        <time>2011-07-25T08:32:27Z</time>
      </trkpt>
      <trkpt lat="44.01156" lon="4.44517">
        <ele>174.61657714844</ele>
        <time>2011-07-25T08:32:40Z</time>
      </trkpt>
      <trkpt lat="44.01197" lon="4.44542">
        <ele>165.96472167969</ele>
        <time>2011-07-25T08:32:53Z</time>
      </trkpt>
      <trkpt lat="44.01245" lon="4.44557">
        <ele>160.19689941406</ele>
        <time>2011-07-25T08:33:01Z</time>
      </trkpt>
      <trkpt lat="44.01299" lon="4.4463">
        <ele>157.31286621094</ele>
        <time>2011-07-25T08:34:31Z</time>
      </trkpt>
      <trkpt lat="44.01322" lon="4.44604">
        <ele>153.94836425781</ele>
        <time>2011-07-25T08:34:43Z</time>
      </trkpt>
      <trkpt lat="44.01288" lon="4.4464">
        <ele>159.23547363281</ele>
        <time>2011-07-25T08:35:54Z</time>
      </trkpt>
      <trkpt lat="44.01245" lon="4.44661">
        <ele>165.48413085938</ele>
        <time>2011-07-25T08:36:25Z</time>
      </trkpt>
      <trkpt lat="44.01202" lon="4.4468">
        <ele>170.77136230469</ele>
        <time>2011-07-25T08:36:54Z</time>
      </trkpt>
      <trkpt lat="44.01157" lon="4.44691">
        <ele>176.05859375</ele>
        <time>2011-07-25T08:37:23Z</time>
      </trkpt>
      <trkpt lat="44.01133" lon="4.44732">
        <ele>182.78784179688</ele>
        <time>2011-07-25T08:37:53Z</time>
      </trkpt>
      <trkpt lat="44.01172" lon="4.44755">
        <ele>182.30712890625</ele>
        <time>2011-07-25T08:38:46Z</time>
      </trkpt>
      <trkpt lat="44.01219" lon="4.44762">
        <ele>180.38452148438</ele>
        <time>2011-07-25T08:39:01Z</time>
      </trkpt>
      <trkpt lat="44.01266" lon="4.44761">
        <ele>178.94262695312</ele>
        <time>2011-07-25T08:39:13Z</time>
      </trkpt>
      <trkpt lat="44.01309" lon="4.44754">
        <ele>179.42321777344</ele>
        <time>2011-07-25T08:39:28Z</time>
      </trkpt>
      <trkpt lat="44.01353" lon="4.4475">
        <ele>179.90380859375</ele>
        <time>2011-07-25T08:40:36Z</time>
      </trkpt>
      <trkpt lat="44.01397" lon="4.44771">
        <ele>176.53930664062</ele>
        <time>2011-07-25T08:40:58Z</time>
      </trkpt>
      <trkpt lat="44.01443" lon="4.44761">
        <ele>171.73266601562</ele>
        <time>2011-07-25T08:41:09Z</time>
      </trkpt>
      <trkpt lat="44.01486" lon="4.44783">
        <ele>169.32946777344</ele>
        <time>2011-07-25T08:41:20Z</time>
      </trkpt>
      <trkpt lat="44.01527" lon="4.44768">
        <ele>163.5615234375</ele>
        <time>2011-07-25T08:41:28Z</time>
      </trkpt>
      <trkpt lat="44.01573" lon="4.44766">
        <ele>161.158203125</ele>
        <time>2011-07-25T08:41:37Z</time>
      </trkpt>
      <trkpt lat="44.01617" lon="4.44744">
        <ele>156.3515625</ele>
        <time>2011-07-25T08:41:46Z</time>
      </trkpt>
      <trkpt lat="44.01659" lon="4.44725">
        <ele>150.58361816406</ele>
        <time>2011-07-25T08:41:57Z</time>
      </trkpt>
      <trkpt lat="44.0169" lon="4.44754">
        <ele>141.45104980469</ele>
        <time>2011-07-25T08:42:50Z</time>
      </trkpt>
      <trkpt lat="44.01702" lon="4.44803">
        <ele>130.87670898438</ele>
        <time>2011-07-25T08:43:35Z</time>
      </trkpt>
      <trkpt lat="44.01667" lon="4.44845">
        <ele>135.20251464844</ele>
        <time>2011-07-25T08:44:36Z</time>
      </trkpt>
      <trkpt lat="44.01628" lon="4.44878">
        <ele>142.89306640625</ele>
        <time>2011-07-25T08:45:06Z</time>
      </trkpt>
      <trkpt lat="44.01588" lon="4.44907">
        <ele>149.1416015625</ele>
        <time>2011-07-25T08:45:38Z</time>
      </trkpt>
      <trkpt lat="44.0155" lon="4.44937">
        <ele>158.75476074219</ele>
        <time>2011-07-25T08:46:14Z</time>
      </trkpt>
      <trkpt lat="44.01521" lon="4.44986">
        <ele>163.5615234375</ele>
        <time>2011-07-25T08:49:07Z</time>
      </trkpt>
      <trkpt lat="44.01488" lon="4.45033">
        <ele>167.40673828125</ele>
        <time>2011-07-25T08:49:28Z</time>
      </trkpt>
      <trkpt lat="44.01454" lon="4.45076">
        <ele>172.69396972656</ele>
        <time>2011-07-25T08:50:15Z</time>
      </trkpt>
      <trkpt lat="44.01415" lon="4.45105">
        <ele>177.02001953125</ele>
        <time>2011-07-25T08:50:43Z</time>
      </trkpt>
      <trkpt lat="44.01375" lon="4.45131">
        <ele>178.94262695312</ele>
        <time>2011-07-25T08:51:13Z</time>
      </trkpt>
      <trkpt lat="44.0133" lon="4.4512">
        <ele>178.4619140625</ele>
        <time>2011-07-25T08:51:29Z</time>
      </trkpt>
      <trkpt lat="44.01283" lon="4.45116">
        <ele>177.98120117188</ele>
        <time>2011-07-25T08:51:54Z</time>
      </trkpt>
      <trkpt lat="44.01236" lon="4.45118">
        <ele>177.98120117188</ele>
        <time>2011-07-25T08:52:08Z</time>
      </trkpt>
      <trkpt lat="44.01212" lon="4.45171">
        <ele>182.78784179688</ele>
        <time>2011-07-25T08:52:26Z</time>
      </trkpt>
      <trkpt lat="44.01176" lon="4.45207">
        <ele>185.19116210938</ele>
        <time>2011-07-25T08:52:51Z</time>
      </trkpt>
      <trkpt lat="44.01143" lon="4.45255">
        <ele>185.67175292969</ele>
        <time>2011-07-25T08:53:11Z</time>
      </trkpt>
      <trkpt lat="44.01114" lon="4.45305">
        <ele>185.19116210938</ele>
        <time>2011-07-25T08:53:49Z</time>
      </trkpt>
      <trkpt lat="44.01071" lon="4.45336">
        <ele>185.19116210938</ele>
        <time>2011-07-25T08:54:07Z</time>
      </trkpt>
      <trkpt lat="44.01062" lon="4.45399">
        <ele>184.71057128906</ele>
        <time>2011-07-25T08:54:23Z</time>
      </trkpt>
      <trkpt lat="44.0105" lon="4.45462">
        <ele>185.19116210938</ele>
        <time>2011-07-25T08:54:40Z</time>
      </trkpt>
      <trkpt lat="44.01042" lon="4.45526">
        <ele>185.67175292969</ele>
        <time>2011-07-25T08:54:56Z</time>
      </trkpt>
      <trkpt lat="44.01035" lon="4.45591">
        <ele>187.11376953125</ele>
        <time>2011-07-25T08:55:13Z</time>
      </trkpt>
      <trkpt lat="44.0103" lon="4.45653">
        <ele>186.63317871094</ele>
        <time>2011-07-25T08:55:28Z</time>
      </trkpt>
      <trkpt lat="44.01034" lon="4.45718">
        <ele>184.71057128906</ele>
        <time>2011-07-25T08:55:40Z</time>
      </trkpt>
      <trkpt lat="44.01035" lon="4.45785">
        <ele>183.7490234375</ele>
        <time>2011-07-25T08:55:51Z</time>
      </trkpt>
      <trkpt lat="44.01043" lon="4.45848">
        <ele>184.22985839844</ele>
        <time>2011-07-25T08:56:03Z</time>
      </trkpt>
      <trkpt lat="44.01067" lon="4.45902">
        <ele>184.22985839844</ele>
        <time>2011-07-25T08:56:18Z</time>
      </trkpt>
      <trkpt lat="44.01081" lon="4.45958">
        <ele>183.7490234375</ele>
        <time>2011-07-25T08:56:37Z</time>
      </trkpt>
      <trkpt lat="44.01113" lon="4.46007">
        <ele>185.19116210938</ele>
        <time>2011-07-25T08:56:55Z</time>
      </trkpt>
      <trkpt lat="44.01137" lon="4.46067">
        <ele>185.19116210938</ele>
        <time>2011-07-25T08:57:12Z</time>
      </trkpt>
      <trkpt lat="44.01152" lon="4.46128">
        <ele>185.19116210938</ele>
        <time>2011-07-25T08:57:26Z</time>
      </trkpt>
      <trkpt lat="44.0117" lon="4.46188">
        <ele>183.7490234375</ele>
        <time>2011-07-25T08:57:39Z</time>
      </trkpt>
      <trkpt lat="44.01159" lon="4.46258">
        <ele>184.22985839844</ele>
        <time>2011-07-25T08:57:54Z</time>
      </trkpt>
      <trkpt lat="44.01136" lon="4.46314">
        <ele>183.26843261719</ele>
        <time>2011-07-25T08:58:15Z</time>
      </trkpt>
      <trkpt lat="44.01123" lon="4.46371">
        <ele>181.34582519531</ele>
        <time>2011-07-25T08:59:51Z</time>
      </trkpt>
      <trkpt lat="44.01124" lon="4.46438">
        <ele>180.38452148438</ele>
        <time>2011-07-25T09:00:07Z</time>
      </trkpt>
      <trkpt lat="44.01117" lon="4.465">
        <ele>180.38452148438</ele>
        <time>2011-07-25T09:00:23Z</time>
      </trkpt>
      <trkpt lat="44.01098" lon="4.46558">
        <ele>180.865234375</ele>
        <time>2011-07-25T09:00:41Z</time>
      </trkpt>
      <trkpt lat="44.01081" lon="4.46618">
        <ele>181.34582519531</ele>
        <time>2011-07-25T09:00:59Z</time>
      </trkpt>
      <trkpt lat="44.01063" lon="4.46676">
        <ele>183.7490234375</ele>
        <time>2011-07-25T09:01:19Z</time>
      </trkpt>
      <trkpt lat="44.01035" lon="4.4673">
        <ele>186.15246582031</ele>
        <time>2011-07-25T09:01:41Z</time>
      </trkpt>
      <trkpt lat="44.01013" lon="4.46784">
        <ele>188.55578613281</ele>
        <time>2011-07-25T09:02:04Z</time>
      </trkpt>
      <trkpt lat="44.00982" lon="4.46833">
        <ele>190.958984375</ele>
        <time>2011-07-25T09:02:25Z</time>
      </trkpt>
      <trkpt lat="44.00976" lon="4.46895">
        <ele>193.84301757812</ele>
        <time>2011-07-25T09:02:47Z</time>
      </trkpt>
      <trkpt lat="44.00977" lon="4.46955">
        <ele>196.72692871094</ele>
        <time>2011-07-25T09:03:08Z</time>
      </trkpt>
      <trkpt lat="44.00959" lon="4.47019">
        <ele>197.68823242188</ele>
        <time>2011-07-25T09:03:28Z</time>
      </trkpt>
      <trkpt lat="44.00946" lon="4.47079">
        <ele>197.68823242188</ele>
        <time>2011-07-25T09:03:46Z</time>
      </trkpt>
      <trkpt lat="44.00936" lon="4.47145">
        <ele>199.13012695312</ele>
        <time>2011-07-25T09:04:03Z</time>
      </trkpt>
      <trkpt lat="44.00915" lon="4.47203">
        <ele>199.61083984375</ele>
        <time>2011-07-25T09:04:20Z</time>
      </trkpt>
      <trkpt lat="44.00905" lon="4.47264">
        <ele>201.05285644531</ele>
        <time>2011-07-25T09:04:36Z</time>
      </trkpt>
      <trkpt lat="44.00905" lon="4.47328">
        <ele>201.05285644531</ele>
        <time>2011-07-25T09:04:53Z</time>
      </trkpt>
      <trkpt lat="44.0092" lon="4.47387">
        <ele>203.45617675781</ele>
        <time>2011-07-25T09:05:12Z</time>
      </trkpt>
      <trkpt lat="44.00923" lon="4.47451">
        <ele>204.41748046875</ele>
        <time>2011-07-25T09:05:30Z</time>
      </trkpt>
      <trkpt lat="44.00926" lon="4.47516">
        <ele>203.93688964844</ele>
        <time>2011-07-25T09:05:47Z</time>
      </trkpt>
      <trkpt lat="44.0095" lon="4.47569">
        <ele>204.89807128906</ele>
        <time>2011-07-25T09:06:05Z</time>
      </trkpt>
      <trkpt lat="44.00973" lon="4.47626">
        <ele>204.89807128906</ele>
        <time>2011-07-25T09:06:24Z</time>
      </trkpt>
      <trkpt lat="44.01003" lon="4.47668">
        <ele>204.41748046875</ele>
        <time>2011-07-25T09:06:44Z</time>
      </trkpt>
      <trkpt lat="44.0105" lon="4.47665">
        <ele>204.89807128906</ele>
        <time>2011-07-25T09:07:03Z</time>
      </trkpt>
      <trkpt lat="44.01088" lon="4.47631">
        <ele>203.93688964844</ele>
        <time>2011-07-25T09:07:20Z</time>
      </trkpt>
      <trkpt lat="44.0113" lon="4.47607">
        <ele>203.93688964844</ele>
        <time>2011-07-25T09:07:37Z</time>
      </trkpt>
      <trkpt lat="44.01166" lon="4.47649">
        <ele>204.41748046875</ele>
        <time>2011-07-25T09:07:54Z</time>
      </trkpt>
      <trkpt lat="44.01192" lon="4.47704">
        <ele>204.41748046875</ele>
        <time>2011-07-25T09:08:12Z</time>
      </trkpt>
      <trkpt lat="44.01217" lon="4.47755">
        <ele>204.89807128906</ele>
        <time>2011-07-25T09:08:31Z</time>
      </trkpt>
      <trkpt lat="44.01249" lon="4.47801">
        <ele>205.85949707031</ele>
        <time>2011-07-25T09:08:51Z</time>
      </trkpt>
      <trkpt lat="44.01278" lon="4.47817">
        <ele>205.85949707031</ele>
        <time>2011-07-25T09:09:20Z</time>
      </trkpt>
      <trkpt lat="44.01304" lon="4.47897">
        <ele>205.37878417969</ele>
        <time>2011-07-25T09:09:51Z</time>
      </trkpt>
      <trkpt lat="44.01316" lon="4.47958">
        <ele>205.37878417969</ele>
        <time>2011-07-25T09:10:11Z</time>
      </trkpt>
      <trkpt lat="44.01319" lon="4.4802">
        <ele>206.82067871094</ele>
        <time>2011-07-25T09:10:32Z</time>
      </trkpt>
      <trkpt lat="44.01342" lon="4.48072">
        <ele>207.30139160156</ele>
        <time>2011-07-25T09:10:54Z</time>
      </trkpt>
      <trkpt lat="44.01356" lon="4.48119">
        <ele>208.74340820312</ele>
        <time>2011-07-25T09:11:16Z</time>
      </trkpt>
      <trkpt lat="44.01363" lon="4.48179">
        <ele>210.18542480469</ele>
        <time>2011-07-25T09:11:39Z</time>
      </trkpt>
      <trkpt lat="44.01358" lon="4.48244">
        <ele>209.70483398438</ele>
        <time>2011-07-25T09:11:59Z</time>
      </trkpt>
      <trkpt lat="44.01362" lon="4.48302">
        <ele>209.22412109375</ele>
        <time>2011-07-25T09:12:16Z</time>
      </trkpt>
      <trkpt lat="44.0137" lon="4.48364">
        <ele>208.74340820312</ele>
        <time>2011-07-25T09:12:36Z</time>
      </trkpt>
      <trkpt lat="44.01404" lon="4.48393">
        <ele>208.26281738281</ele>
        <time>2011-07-25T09:12:54Z</time>
      </trkpt>
      <trkpt lat="44.01429" lon="4.48439">
        <ele>207.78210449219</ele>
        <time>2011-07-25T09:13:12Z</time>
      </trkpt>
      <trkpt lat="44.01398" lon="4.48472">
        <ele>208.26281738281</ele>
        <time>2011-07-25T09:14:05Z</time>
      </trkpt>
      <trkpt lat="44.01366" lon="4.48506">
        <ele>208.26281738281</ele>
        <time>2011-07-25T09:14:33Z</time>
      </trkpt>
      <trkpt lat="44.0136" lon="4.48572">
        <ele>206.82067871094</ele>
        <time>2011-07-25T09:14:49Z</time>
      </trkpt>
      <trkpt lat="44.01335" lon="4.48626">
        <ele>203.93688964844</ele>
        <time>2011-07-25T09:15:00Z</time>
      </trkpt>
      <trkpt lat="44.01289" lon="4.48607">
        <ele>206.34008789062</ele>
        <time>2011-07-25T09:15:12Z</time>
      </trkpt>
      <trkpt lat="44.01242" lon="4.48596">
        <ele>205.37878417969</ele>
        <time>2011-07-25T09:15:33Z</time>
      </trkpt>
      <trkpt lat="44.01218" lon="4.48637">
        <ele>205.37878417969</ele>
        <time>2011-07-25T09:15:46Z</time>
      </trkpt>
      <trkpt lat="44.01236" lon="4.48695">
        <ele>206.82067871094</ele>
        <time>2011-07-25T09:16:04Z</time>
      </trkpt>
      <trkpt lat="44.01221" lon="4.48754">
        <ele>210.18542480469</ele>
        <time>2011-07-25T09:16:23Z</time>
      </trkpt>
      <trkpt lat="44.01183" lon="4.48789">
        <ele>211.62744140625</ele>
        <time>2011-07-25T09:16:41Z</time>
      </trkpt>
      <trkpt lat="44.01157" lon="4.48838">
        <ele>211.14672851562</ele>
        <time>2011-07-25T09:16:57Z</time>
      </trkpt>
      <trkpt lat="44.01141" lon="4.48898">
        <ele>208.26281738281</ele>
        <time>2011-07-25T09:17:11Z</time>
      </trkpt>
      <trkpt lat="44.01127" lon="4.48961">
        <ele>204.89807128906</ele>
        <time>2011-07-25T09:17:25Z</time>
      </trkpt>
      <trkpt lat="44.0109" lon="4.49003">
        <ele>204.41748046875</ele>
        <time>2011-07-25T09:17:37Z</time>
      </trkpt>
      <trkpt lat="44.01049" lon="4.49035">
        <ele>204.89807128906</ele>
        <time>2011-07-25T09:17:52Z</time>
      </trkpt>
      <trkpt lat="44.01004" lon="4.49047">
        <ele>205.37878417969</ele>
        <time>2011-07-25T09:18:06Z</time>
      </trkpt>
      <trkpt lat="44.00957" lon="4.49049">
        <ele>205.37878417969</ele>
        <time>2011-07-25T09:18:21Z</time>
      </trkpt>
      <trkpt lat="44.00912" lon="4.49054">
        <ele>205.37878417969</ele>
        <time>2011-07-25T09:18:37Z</time>
      </trkpt>
      <trkpt lat="44.00894" lon="4.49111">
        <ele>207.78210449219</ele>
        <time>2011-07-25T09:18:54Z</time>
      </trkpt>
      <trkpt lat="44.0089" lon="4.49174">
        <ele>210.18542480469</ele>
        <time>2011-07-25T09:19:12Z</time>
      </trkpt>
      <trkpt lat="44.00887" lon="4.49237">
        <ele>210.666015625</ele>
        <time>2011-07-25T09:19:29Z</time>
      </trkpt>
      <trkpt lat="44.00896" lon="4.49299">
        <ele>210.18542480469</ele>
        <time>2011-07-25T09:19:43Z</time>
      </trkpt>
      <trkpt lat="44.00899" lon="4.49363">
        <ele>207.78210449219</ele>
        <time>2011-07-25T09:19:54Z</time>
      </trkpt>
      <trkpt lat="44.00931" lon="4.49417">
        <ele>204.41748046875</ele>
        <time>2011-07-25T09:20:03Z</time>
      </trkpt>
      <trkpt lat="44.00955" lon="4.49478">
        <ele>201.53356933594</ele>
        <time>2011-07-25T09:20:11Z</time>
      </trkpt>
      <trkpt lat="44.00976" lon="4.49532">
        <ele>200.09167480469</ele>
        <time>2011-07-25T09:20:18Z</time>
      </trkpt>
      <trkpt lat="44.00977" lon="4.49594">
        <ele>201.05285644531</ele>
        <time>2011-07-25T09:20:26Z</time>
      </trkpt>
      <trkpt lat="44.00977" lon="4.49656">
        <ele>201.05285644531</ele>
        <time>2011-07-25T09:20:36Z</time>
      </trkpt>
      <trkpt lat="44.00973" lon="4.49718">
        <ele>202.97546386719</ele>
        <time>2011-07-25T09:20:48Z</time>
      </trkpt>
      <trkpt lat="44.00978" lon="4.49781">
        <ele>201.53356933594</ele>
        <time>2011-07-25T09:21:03Z</time>
      </trkpt>
      <trkpt lat="44.00989" lon="4.49845">
        <ele>199.61083984375</ele>
        <time>2011-07-25T09:21:15Z</time>
      </trkpt>
      <trkpt lat="44.01023" lon="4.49894">
        <ele>197.68823242188</ele>
        <time>2011-07-25T09:21:27Z</time>
      </trkpt>
      <trkpt lat="44.0106" lon="4.4994">
        <ele>196.72692871094</ele>
        <time>2011-07-25T09:21:38Z</time>
      </trkpt>
      <trkpt lat="44.0107" lon="4.49997">
        <ele>196.24633789062</ele>
        <time>2011-07-25T09:21:48Z</time>
      </trkpt>
      <trkpt lat="44.01069" lon="4.50064">
        <ele>197.68823242188</ele>
        <time>2011-07-25T09:21:59Z</time>
      </trkpt>
      <trkpt lat="44.01069" lon="4.50127">
        <ele>197.20751953125</ele>
        <time>2011-07-25T09:22:10Z</time>
      </trkpt>
      <trkpt lat="44.01068" lon="4.5019">
        <ele>199.13012695312</ele>
        <time>2011-07-25T09:22:21Z</time>
      </trkpt>
      <trkpt lat="44.01079" lon="4.50251">
        <ele>200.572265625</ele>
        <time>2011-07-25T09:22:32Z</time>
      </trkpt>
      <trkpt lat="44.01076" lon="4.50314">
        <ele>201.05285644531</ele>
        <time>2011-07-25T09:22:43Z</time>
      </trkpt>
      <trkpt lat="44.01089" lon="4.50377">
        <ele>202.01428222656</ele>
        <time>2011-07-25T09:22:54Z</time>
      </trkpt>
      <trkpt lat="44.01101" lon="4.50441">
        <ele>202.49487304688</ele>
        <time>2011-07-25T09:23:06Z</time>
      </trkpt>
      <trkpt lat="44.01113" lon="4.50501">
        <ele>204.41748046875</ele>
        <time>2011-07-25T09:23:18Z</time>
      </trkpt>
      <trkpt lat="44.01129" lon="4.50562">
        <ele>205.37878417969</ele>
        <time>2011-07-25T09:23:30Z</time>
      </trkpt>
      <trkpt lat="44.01122" lon="4.50625">
        <ele>205.85949707031</ele>
        <time>2011-07-25T09:23:38Z</time>
      </trkpt>
      <trkpt lat="44.01112" lon="4.5069">
        <ele>207.30139160156</ele>
        <time>2011-07-25T09:23:47Z</time>
      </trkpt>
      <trkpt lat="44.01105" lon="4.50751">
        <ele>206.34008789062</ele>
        <time>2011-07-25T09:24:02Z</time>
      </trkpt>
      <trkpt lat="44.01092" lon="4.50809">
        <ele>205.85949707031</ele>
        <time>2011-07-25T09:24:49Z</time>
      </trkpt>
      <trkpt lat="44.0108" lon="4.50874">
        <ele>203.93688964844</ele>
        <time>2011-07-25T09:24:58Z</time>
      </trkpt>
      <trkpt lat="44.01066" lon="4.50939">
        <ele>205.37878417969</ele>
        <time>2011-07-25T09:25:08Z</time>
      </trkpt>
      <trkpt lat="44.01051" lon="4.50998">
        <ele>205.85949707031</ele>
        <time>2011-07-25T09:25:17Z</time>
      </trkpt>
      <trkpt lat="44.01033" lon="4.51065">
        <ele>202.49487304688</ele>
        <time>2011-07-25T09:25:26Z</time>
      </trkpt>
      <trkpt lat="44.01038" lon="4.51128">
        <ele>200.572265625</ele>
        <time>2011-07-25T09:25:33Z</time>
      </trkpt>
      <trkpt lat="44.01065" lon="4.51188">
        <ele>201.05285644531</ele>
        <time>2011-07-25T09:25:41Z</time>
      </trkpt>
      <trkpt lat="44.01054" lon="4.51248">
        <ele>201.05285644531</ele>
        <time>2011-07-25T09:25:49Z</time>
      </trkpt>
      <trkpt lat="44.01015" lon="4.51286">
        <ele>201.53356933594</ele>
        <time>2011-07-25T09:25:57Z</time>
      </trkpt>
      <trkpt lat="44.00978" lon="4.51331">
        <ele>202.97546386719</ele>
        <time>2011-07-25T09:26:06Z</time>
      </trkpt>
      <trkpt lat="44.00981" lon="4.51395">
        <ele>203.45617675781</ele>
        <time>2011-07-25T09:26:16Z</time>
      </trkpt>
      <trkpt lat="44.00988" lon="4.51459">
        <ele>205.37878417969</ele>
        <time>2011-07-25T09:26:28Z</time>
      </trkpt>
      <trkpt lat="44.01009" lon="4.51517">
        <ele>205.37878417969</ele>
        <time>2011-07-25T09:26:40Z</time>
      </trkpt>
      <trkpt lat="44.01002" lon="4.51579">
        <ele>206.34008789062</ele>
        <time>2011-07-25T09:26:54Z</time>
      </trkpt>
      <trkpt lat="44.00987" lon="4.51642">
        <ele>205.85949707031</ele>
        <time>2011-07-25T09:27:07Z</time>
      </trkpt>
      <trkpt lat="44.00964" lon="4.51695">
        <ele>205.85949707031</ele>
        <time>2011-07-25T09:27:17Z</time>
      </trkpt>
      <trkpt lat="44.00918" lon="4.51706">
        <ele>206.82067871094</ele>
        <time>2011-07-25T09:27:27Z</time>
      </trkpt>
      <trkpt lat="44.00876" lon="4.51732">
        <ele>206.82067871094</ele>
        <time>2011-07-25T09:27:37Z</time>
      </trkpt>
      <trkpt lat="44.00837" lon="4.5177">
        <ele>207.30139160156</ele>
        <time>2011-07-25T09:27:47Z</time>
      </trkpt>
      <trkpt lat="44.00795" lon="4.51802">
        <ele>207.30139160156</ele>
        <time>2011-07-25T09:27:57Z</time>
      </trkpt>
      <trkpt lat="44.00777" lon="4.51863">
        <ele>208.26281738281</ele>
        <time>2011-07-25T09:28:07Z</time>
      </trkpt>
      <trkpt lat="44.00772" lon="4.51928">
        <ele>207.30139160156</ele>
        <time>2011-07-25T09:28:16Z</time>
      </trkpt>
      <trkpt lat="44.00769" lon="4.51993">
        <ele>205.37878417969</ele>
        <time>2011-07-25T09:28:24Z</time>
      </trkpt>
      <trkpt lat="44.00752" lon="4.52056">
        <ele>201.53356933594</ele>
        <time>2011-07-25T09:28:31Z</time>
      </trkpt>
      <trkpt lat="44.00748" lon="4.52124">
        <ele>200.572265625</ele>
        <time>2011-07-25T09:28:38Z</time>
      </trkpt>
      <trkpt lat="44.00752" lon="4.52191">
        <ele>199.13012695312</ele>
        <time>2011-07-25T09:28:45Z</time>
      </trkpt>
      <trkpt lat="44.00781" lon="4.52239">
        <ele>198.64953613281</ele>
        <time>2011-07-25T09:28:52Z</time>
      </trkpt>
      <trkpt lat="44.00806" lon="4.52291">
        <ele>198.64953613281</ele>
        <time>2011-07-25T09:28:59Z</time>
      </trkpt>
      <trkpt lat="44.00774" lon="4.52331">
        <ele>198.1689453125</ele>
        <time>2011-07-25T09:29:06Z</time>
      </trkpt>
      <trkpt lat="44.00729" lon="4.52359">
        <ele>196.24633789062</ele>
        <time>2011-07-25T09:29:13Z</time>
      </trkpt>
      <trkpt lat="44.00697" lon="4.52415">
        <ele>193.84301757812</ele>
        <time>2011-07-25T09:29:20Z</time>
      </trkpt>
      <trkpt lat="44.00667" lon="4.52467">
        <ele>192.40112304688</ele>
        <time>2011-07-25T09:29:27Z</time>
      </trkpt>
      <trkpt lat="44.00647" lon="4.52527">
        <ele>192.40112304688</ele>
        <time>2011-07-25T09:29:35Z</time>
      </trkpt>
      <trkpt lat="44.00632" lon="4.52591">
        <ele>191.92028808594</ele>
        <time>2011-07-25T09:29:44Z</time>
      </trkpt>
      <trkpt lat="44.00646" lon="4.52635">
        <ele>192.40112304688</ele>
        <time>2011-07-25T09:30:09Z</time>
      </trkpt>
      <trkpt lat="44.0069" lon="4.52653">
        <ele>192.40112304688</ele>
        <time>2011-07-25T09:30:24Z</time>
      </trkpt>
      <trkpt lat="44.00736" lon="4.52659">
        <ele>193.84301757812</ele>
        <time>2011-07-25T09:30:38Z</time>
      </trkpt>
      <trkpt lat="44.00784" lon="4.5266">
        <ele>194.32373046875</ele>
        <time>2011-07-25T09:30:52Z</time>
      </trkpt>
      <trkpt lat="44.00829" lon="4.52666">
        <ele>196.24633789062</ele>
        <time>2011-07-25T09:31:06Z</time>
      </trkpt>
      <trkpt lat="44.00859" lon="4.52688">
        <ele>196.72692871094</ele>
        <time>2011-07-25T09:31:21Z</time>
      </trkpt>
      <trkpt lat="44.00866" lon="4.52754">
        <ele>196.24633789062</ele>
        <time>2011-07-25T09:31:39Z</time>
      </trkpt>
      <trkpt lat="44.00849" lon="4.52813">
        <ele>194.80432128906</ele>
        <time>2011-07-25T09:31:51Z</time>
      </trkpt>
      <trkpt lat="44.00838" lon="4.5288">
        <ele>193.3623046875</ele>
        <time>2011-07-25T09:32:02Z</time>
      </trkpt>
      <trkpt lat="44.00842" lon="4.52941">
        <ele>192.88171386719</ele>
        <time>2011-07-25T09:32:12Z</time>
      </trkpt>
      <trkpt lat="44.00857" lon="4.53003">
        <ele>193.84301757812</ele>
        <time>2011-07-25T09:32:24Z</time>
      </trkpt>
      <trkpt lat="44.0084" lon="4.53061">
        <ele>193.84301757812</ele>
        <time>2011-07-25T09:32:40Z</time>
      </trkpt>
      <trkpt lat="44.00833" lon="4.53124">
        <ele>192.40112304688</ele>
        <time>2011-07-25T09:32:59Z</time>
      </trkpt>
      <trkpt lat="44.00826" lon="4.5319">
        <ele>191.43957519531</ele>
        <time>2011-07-25T09:33:13Z</time>
      </trkpt>
      <trkpt lat="44.00813" lon="4.53253">
        <ele>190.958984375</ele>
        <time>2011-07-25T09:33:27Z</time>
      </trkpt>
      <trkpt lat="44.00791" lon="4.5331">
        <ele>189.03637695312</ele>
        <time>2011-07-25T09:33:40Z</time>
      </trkpt>
      <trkpt lat="44.00776" lon="4.53369">
        <ele>188.07507324219</ele>
        <time>2011-07-25T09:33:53Z</time>
      </trkpt>
      <trkpt lat="44.00745" lon="4.53415">
        <ele>186.63317871094</ele>
        <time>2011-07-25T09:34:06Z</time>
      </trkpt>
      <trkpt lat="44.0072" lon="4.53466">
        <ele>186.63317871094</ele>
        <time>2011-07-25T09:34:20Z</time>
      </trkpt>
      <trkpt lat="44.00697" lon="4.53521">
        <ele>185.67175292969</ele>
        <time>2011-07-25T09:34:36Z</time>
      </trkpt>
      <trkpt lat="44.00681" lon="4.53574">
        <ele>185.19116210938</ele>
        <time>2011-07-25T09:34:51Z</time>
      </trkpt>
      <trkpt lat="44.00652" lon="4.53628">
        <ele>183.7490234375</ele>
        <time>2011-07-25T09:35:07Z</time>
      </trkpt>
      <trkpt lat="44.00614" lon="4.53654">
        <ele>183.26843261719</ele>
        <time>2011-07-25T09:35:25Z</time>
      </trkpt>
      <trkpt lat="44.00574" lon="4.53627">
        <ele>182.30712890625</ele>
        <time>2011-07-25T09:35:45Z</time>
      </trkpt>
      <trkpt lat="44.00531" lon="4.53628">
        <ele>181.34582519531</ele>
        <time>2011-07-25T09:36:04Z</time>
      </trkpt>
      <trkpt lat="44.00526" lon="4.5357">
        <ele>178.4619140625</ele>
        <time>2011-07-25T09:36:27Z</time>
      </trkpt>
      <trkpt lat="44.00521" lon="4.53519">
        <ele>175.09729003906</ele>
        <time>2011-07-25T09:36:46Z</time>
      </trkpt>
      <trkpt lat="44.00473" lon="4.53528">
        <ele>174.61657714844</ele>
        <time>2011-07-25T09:37:34Z</time>
      </trkpt>
      <trkpt lat="44.00429" lon="4.53508">
        <ele>172.69396972656</ele>
        <time>2011-07-25T09:37:53Z</time>
      </trkpt>
      <trkpt lat="44.00395" lon="4.53496">
        <ele>171.73266601562</ele>
        <time>2011-07-25T09:38:16Z</time>
      </trkpt>
      <trkpt lat="44.00359" lon="4.53532">
        <ele>170.29064941406</ele>
        <time>2011-07-25T09:39:00Z</time>
      </trkpt>
      <trkpt lat="44.0034" lon="4.53588">
        <ele>167.88732910156</ele>
        <time>2011-07-25T09:39:21Z</time>
      </trkpt>
      <trkpt lat="44.0031" lon="4.53634">
        <ele>167.40673828125</ele>
        <time>2011-07-25T09:39:40Z</time>
      </trkpt>
      <trkpt lat="44.00274" lon="4.53675">
        <ele>165.00341796875</ele>
        <time>2011-07-25T09:39:55Z</time>
      </trkpt>
      <trkpt lat="44.00235" lon="4.53708">
        <ele>163.5615234375</ele>
        <time>2011-07-25T09:40:09Z</time>
      </trkpt>
      <trkpt lat="44.00198" lon="4.53754">
        <ele>161.158203125</ele>
        <time>2011-07-25T09:40:21Z</time>
      </trkpt>
      <trkpt lat="44.00161" lon="4.53798">
        <ele>158.75476074219</ele>
        <time>2011-07-25T09:40:32Z</time>
      </trkpt>
      <trkpt lat="44.00128" lon="4.5384">
        <ele>157.31286621094</ele>
        <time>2011-07-25T09:40:44Z</time>
      </trkpt>
      <trkpt lat="44.00096" lon="4.53883">
        <ele>155.87097167969</ele>
        <time>2011-07-25T09:40:55Z</time>
      </trkpt>
      <trkpt lat="44.00062" lon="4.53926">
        <ele>155.39025878906</ele>
        <time>2011-07-25T09:41:06Z</time>
      </trkpt>
      <trkpt lat="44.00019" lon="4.53958">
        <ele>154.42895507812</ele>
        <time>2011-07-25T09:41:19Z</time>
      </trkpt>
      <trkpt lat="43.99975" lon="4.53946">
        <ele>152.50634765625</ele>
        <time>2011-07-25T09:41:32Z</time>
      </trkpt>
      <trkpt lat="43.99936" lon="4.53922">
        <ele>154.90954589844</ele>
        <time>2011-07-25T09:45:20Z</time>
      </trkpt>
      <trkpt lat="43.99895" lon="4.5391">
        <ele>157.79357910156</ele>
        <time>2011-07-25T09:50:02Z</time>
      </trkpt>
      <trkpt lat="43.99853" lon="4.53885">
        <ele>160.67749023438</ele>
        <time>2011-07-25T09:50:42Z</time>
      </trkpt>
      <trkpt lat="43.99808" lon="4.53868">
        <ele>165.48413085938</ele>
        <time>2011-07-25T09:51:15Z</time>
      </trkpt>
      <trkpt lat="43.99764" lon="4.53853">
        <ele>169.81005859375</ele>
        <time>2011-07-25T09:51:47Z</time>
      </trkpt>
      <trkpt lat="43.99729" lon="4.53817">
        <ele>175.09729003906</ele>
        <time>2011-07-25T09:52:21Z</time>
      </trkpt>
      <trkpt lat="43.99686" lon="4.53786">
        <ele>175.09729003906</ele>
        <time>2011-07-25T09:52:52Z</time>
      </trkpt>
      <trkpt lat="43.99645" lon="4.53785">
        <ele>174.61657714844</ele>
        <time>2011-07-25T09:53:19Z</time>
      </trkpt>
      <trkpt lat="43.99613" lon="4.53834">
        <ele>175.57788085938</ele>
        <time>2011-07-25T09:53:39Z</time>
      </trkpt>
      <trkpt lat="43.99587" lon="4.53888">
        <ele>174.61657714844</ele>
        <time>2011-07-25T09:53:54Z</time>
      </trkpt>
      <trkpt lat="43.9956" lon="4.53943">
        <ele>174.13586425781</ele>
        <time>2011-07-25T09:54:07Z</time>
      </trkpt>
      <trkpt lat="43.99529" lon="4.53992">
        <ele>172.69396972656</ele>
        <time>2011-07-25T09:54:19Z</time>
      </trkpt>
      <trkpt lat="43.99494" lon="4.54042">
        <ele>171.25207519531</ele>
        <time>2011-07-25T09:54:31Z</time>
      </trkpt>
      <trkpt lat="43.99453" lon="4.54065">
        <ele>170.29064941406</ele>
        <time>2011-07-25T09:54:42Z</time>
      </trkpt>
      <trkpt lat="43.99404" lon="4.54049">
        <ele>170.29064941406</ele>
        <time>2011-07-25T09:54:54Z</time>
      </trkpt>
      <trkpt lat="43.99359" lon="4.54054">
        <ele>168.84875488281</ele>
        <time>2011-07-25T09:55:06Z</time>
      </trkpt>
      <trkpt lat="43.99313" lon="4.54075">
        <ele>166.4453125</ele>
        <time>2011-07-25T09:55:18Z</time>
      </trkpt>
      <trkpt lat="43.99268" lon="4.54094">
        <ele>165.48413085938</ele>
        <time>2011-07-25T09:55:29Z</time>
      </trkpt>
      <trkpt lat="43.99224" lon="4.54119">
        <ele>165.00341796875</ele>
        <time>2011-07-25T09:55:41Z</time>
      </trkpt>
      <trkpt lat="43.99207" lon="4.54184">
        <ele>165.96472167969</ele>
        <time>2011-07-25T09:55:54Z</time>
      </trkpt>
      <trkpt lat="43.99173" lon="4.54233">
        <ele>164.52270507812</ele>
        <time>2011-07-25T09:56:07Z</time>
      </trkpt>
      <trkpt lat="43.99158" lon="4.54296">
        <ele>162.11950683594</ele>
        <time>2011-07-25T09:56:16Z</time>
      </trkpt>
      <trkpt lat="43.99153" lon="4.54357">
        <ele>162.60009765625</ele>
        <time>2011-07-25T09:56:27Z</time>
      </trkpt>
      <trkpt lat="43.99137" lon="4.54416">
        <ele>162.11950683594</ele>
        <time>2011-07-25T09:56:39Z</time>
      </trkpt>
      <trkpt lat="43.99112" lon="4.54471">
        <ele>160.67749023438</ele>
        <time>2011-07-25T09:56:51Z</time>
      </trkpt>
      <trkpt lat="43.99085" lon="4.54526">
        <ele>158.75476074219</ele>
        <time>2011-07-25T09:57:03Z</time>
      </trkpt>
      <trkpt lat="43.99065" lon="4.54583">
        <ele>158.27416992188</ele>
        <time>2011-07-25T09:57:14Z</time>
      </trkpt>
      <trkpt lat="43.99053" lon="4.54648">
        <ele>158.27416992188</ele>
        <time>2011-07-25T09:57:26Z</time>
      </trkpt>
      <trkpt lat="43.99022" lon="4.54697">
        <ele>158.27416992188</ele>
        <time>2011-07-25T09:57:39Z</time>
      </trkpt>
      <trkpt lat="43.98984" lon="4.54731">
        <ele>158.75476074219</ele>
        <time>2011-07-25T09:57:51Z</time>
      </trkpt>
      <trkpt lat="43.98942" lon="4.54757">
        <ele>158.75476074219</ele>
        <time>2011-07-25T09:58:02Z</time>
      </trkpt>
      <trkpt lat="43.98893" lon="4.54753">
        <ele>155.39025878906</ele>
        <time>2011-07-25T09:58:12Z</time>
      </trkpt>
      <trkpt lat="43.98852" lon="4.54773">
        <ele>156.83215332031</ele>
        <time>2011-07-25T09:58:22Z</time>
      </trkpt>
      <trkpt lat="43.98822" lon="4.54821">
        <ele>155.87097167969</ele>
        <time>2011-07-25T09:58:33Z</time>
      </trkpt>
      <trkpt lat="43.98786" lon="4.54862">
        <ele>155.39025878906</ele>
        <time>2011-07-25T09:58:44Z</time>
      </trkpt>
      <trkpt lat="43.98746" lon="4.54904">
        <ele>152.02575683594</ele>
        <time>2011-07-25T09:58:53Z</time>
      </trkpt>
      <trkpt lat="43.98704" lon="4.54938">
        <ele>149.1416015625</ele>
        <time>2011-07-25T09:59:00Z</time>
      </trkpt>
      <trkpt lat="43.98659" lon="4.54964">
        <ele>149.62231445312</ele>
        <time>2011-07-25T09:59:07Z</time>
      </trkpt>
      <trkpt lat="43.98613" lon="4.54986">
        <ele>151.06420898438</ele>
        <time>2011-07-25T09:59:15Z</time>
      </trkpt>
      <trkpt lat="43.98563" lon="4.54987">
        <ele>149.1416015625</ele>
        <time>2011-07-25T09:59:23Z</time>
      </trkpt>
      <trkpt lat="43.98518" lon="4.54969">
        <ele>145.29638671875</ele>
        <time>2011-07-25T09:59:29Z</time>
      </trkpt>
      <trkpt lat="43.98469" lon="4.54961">
        <ele>142.41247558594</ele>
        <time>2011-07-25T09:59:35Z</time>
      </trkpt>
      <trkpt lat="43.98418" lon="4.5494">
        <ele>139.0478515625</ele>
        <time>2011-07-25T09:59:41Z</time>
      </trkpt>
      <trkpt lat="43.98377" lon="4.54971">
        <ele>134.72192382812</ele>
        <time>2011-07-25T09:59:48Z</time>
      </trkpt>
      <trkpt lat="43.9833" lon="4.54995">
        <ele>132.79931640625</ele>
        <time>2011-07-25T09:59:54Z</time>
      </trkpt>
      <trkpt lat="43.98281" lon="4.55026">
        <ele>128.47338867188</ele>
        <time>2011-07-25T10:00:00Z</time>
      </trkpt>
      <trkpt lat="43.98237" lon="4.55048">
        <ele>127.03137207031</ele>
        <time>2011-07-25T10:00:05Z</time>
      </trkpt>
      <trkpt lat="43.98188" lon="4.55051">
        <ele>122.70544433594</ele>
        <time>2011-07-25T10:00:11Z</time>
      </trkpt>
      <trkpt lat="43.98144" lon="4.55081">
        <ele>118.37939453125</ele>
        <time>2011-07-25T10:00:18Z</time>
      </trkpt>
      <trkpt lat="43.98095" lon="4.55073">
        <ele>115.01489257812</ele>
        <time>2011-07-25T10:00:24Z</time>
      </trkpt>
      <trkpt lat="43.98055" lon="4.55047">
        <ele>110.68884277344</ele>
        <time>2011-07-25T10:00:29Z</time>
      </trkpt>
      <trkpt lat="43.98012" lon="4.55015">
        <ele>106.36303710938</ele>
        <time>2011-07-25T10:00:34Z</time>
      </trkpt>
      <trkpt lat="43.97966" lon="4.54992">
        <ele>102.51770019531</ele>
        <time>2011-07-25T10:00:39Z</time>
      </trkpt>
      <trkpt lat="43.97921" lon="4.54976">
        <ele>102.99829101562</ele>
        <time>2011-07-25T10:00:47Z</time>
      </trkpt>
      <trkpt lat="43.979" lon="4.55032">
        <ele>97.23046875</ele>
        <time>2011-07-25T10:03:48Z</time>
      </trkpt>
      <trkpt lat="43.97886" lon="4.55092">
        <ele>93.865844726562</ele>
        <time>2011-07-25T10:04:01Z</time>
      </trkpt>
      <trkpt lat="43.97874" lon="4.55155">
        <ele>90.501342773438</ele>
        <time>2011-07-25T10:04:11Z</time>
      </trkpt>
      <trkpt lat="43.97837" lon="4.55197">
        <ele>87.136596679688</ele>
        <time>2011-07-25T10:04:21Z</time>
      </trkpt>
      <trkpt lat="43.97817" lon="4.55257">
        <ele>81.849365234375</ele>
        <time>2011-07-25T10:04:31Z</time>
      </trkpt>
      <trkpt lat="43.97794" lon="4.55313">
        <ele>78.965454101562</ele>
        <time>2011-07-25T10:04:38Z</time>
      </trkpt>
      <trkpt lat="43.97771" lon="4.55368">
        <ele>78.004028320312</ele>
        <time>2011-07-25T10:04:46Z</time>
      </trkpt>
      <trkpt lat="43.97741" lon="4.55422">
        <ele>73.67822265625</ele>
        <time>2011-07-25T10:04:56Z</time>
      </trkpt>
      <trkpt lat="43.97717" lon="4.55466">
        <ele>70.3134765625</ele>
        <time>2011-07-25T10:05:25Z</time>
      </trkpt>
      <trkpt lat="43.97672" lon="4.55454">
        <ele>70.3134765625</ele>
        <time>2011-07-25T10:06:12Z</time>
      </trkpt>
      <trkpt lat="43.97627" lon="4.5544">
        <ele>68.87158203125</ele>
        <time>2011-07-25T10:06:30Z</time>
      </trkpt>
      <trkpt lat="43.97582" lon="4.55426">
        <ele>67.910278320312</ele>
        <time>2011-07-25T10:06:45Z</time>
      </trkpt>
      <trkpt lat="43.97535" lon="4.55412">
        <ele>67.910278320312</ele>
        <time>2011-07-25T10:06:59Z</time>
      </trkpt>
      <trkpt lat="43.97494" lon="4.55425">
        <ele>66.46826171875</ele>
        <time>2011-07-25T10:07:17Z</time>
      </trkpt>
      <trkpt lat="43.9747" lon="4.55479">
        <ele>66.46826171875</ele>
        <time>2011-07-25T10:07:32Z</time>
      </trkpt>
      <trkpt lat="43.97435" lon="4.55521">
        <ele>65.0263671875</ele>
        <time>2011-07-25T10:07:45Z</time>
      </trkpt>
      <trkpt lat="43.97398" lon="4.55559">
        <ele>65.507080078125</ele>
        <time>2011-07-25T10:07:56Z</time>
      </trkpt>
      <trkpt lat="43.97362" lon="4.55596">
        <ele>63.584350585938</ele>
        <time>2011-07-25T10:08:11Z</time>
      </trkpt>
      <trkpt lat="43.97374" lon="4.55652">
        <ele>62.622924804688</ele>
        <time>2011-07-25T10:08:50Z</time>
      </trkpt>
      <trkpt lat="43.9739" lon="4.55715">
        <ele>63.103637695312</ele>
        <time>2011-07-25T10:09:04Z</time>
      </trkpt>
      <trkpt lat="43.97405" lon="4.55774">
        <ele>62.622924804688</ele>
        <time>2011-07-25T10:09:17Z</time>
      </trkpt>
      <trkpt lat="43.97425" lon="4.55834">
        <ele>62.622924804688</ele>
        <time>2011-07-25T10:09:31Z</time>
      </trkpt>
      <trkpt lat="43.97446" lon="4.55888">
        <ele>65.0263671875</ele>
        <time>2011-07-25T10:09:46Z</time>
      </trkpt>
      <trkpt lat="43.97438" lon="4.55867">
        <ele>65.987670898438</ele>
        <time>2011-07-25T10:10:24Z</time>
      </trkpt>
      <trkpt lat="43.97417" lon="4.55809">
        <ele>63.584350585938</ele>
        <time>2011-07-25T10:10:49Z</time>
      </trkpt>
      <trkpt lat="43.97398" lon="4.55746">
        <ele>62.142333984375</ele>
        <time>2011-07-25T10:11:06Z</time>
      </trkpt>
      <trkpt lat="43.97382" lon="4.55686">
        <ele>62.622924804688</ele>
        <time>2011-07-25T10:11:20Z</time>
      </trkpt>
      <trkpt lat="43.97367" lon="4.55624">
        <ele>62.622924804688</ele>
        <time>2011-07-25T10:11:36Z</time>
      </trkpt>
      <trkpt lat="43.97355" lon="4.55565">
        <ele>63.103637695312</ele>
        <time>2011-07-25T10:12:01Z</time>
      </trkpt>
      <trkpt lat="43.97325" lon="4.55516">
        <ele>65.987670898438</ele>
        <time>2011-07-25T10:12:13Z</time>
      </trkpt>
      <trkpt lat="43.97289" lon="4.55477">
        <ele>69.832885742188</ele>
        <time>2011-07-25T10:12:26Z</time>
      </trkpt>
      <trkpt lat="43.97318" lon="4.55451">
        <ele>67.910278320312</ele>
        <time>2011-07-25T10:12:46Z</time>
      </trkpt>
      <trkpt lat="43.97367" lon="4.55441">
        <ele>67.910278320312</ele>
        <time>2011-07-25T10:12:58Z</time>
      </trkpt>
      <trkpt lat="43.97414" lon="4.5543">
        <ele>65.987670898438</ele>
        <time>2011-07-25T10:13:09Z</time>
      </trkpt>
      <trkpt lat="43.97459" lon="4.5542">
        <ele>65.987670898438</ele>
        <time>2011-07-25T10:13:20Z</time>
      </trkpt>
      <trkpt lat="43.97504" lon="4.55416">
        <ele>65.987670898438</ele>
        <time>2011-07-25T10:13:35Z</time>
      </trkpt>
      <trkpt lat="43.97529" lon="4.55372">
        <ele>66.46826171875</ele>
        <time>2011-07-25T10:14:07Z</time>
      </trkpt>
      <trkpt lat="43.97547" lon="4.5531">
        <ele>65.987670898438</ele>
        <time>2011-07-25T10:14:21Z</time>
      </trkpt>
      <trkpt lat="43.97565" lon="4.5525">
        <ele>66.46826171875</ele>
        <time>2011-07-25T10:14:34Z</time>
      </trkpt>
      <trkpt lat="43.97582" lon="4.55186">
        <ele>66.46826171875</ele>
        <time>2011-07-25T10:14:47Z</time>
      </trkpt>
      <trkpt lat="43.97596" lon="4.55122">
        <ele>66.948974609375</ele>
        <time>2011-07-25T10:15:00Z</time>
      </trkpt>
      <trkpt lat="43.97608" lon="4.55059">
        <ele>66.46826171875</ele>
        <time>2011-07-25T10:15:12Z</time>
      </trkpt>
      <trkpt lat="43.97621" lon="4.54993">
        <ele>67.4296875</ele>
        <time>2011-07-25T10:15:24Z</time>
      </trkpt>
      <trkpt lat="43.97633" lon="4.54935">
        <ele>67.910278320312</ele>
        <time>2011-07-25T10:15:35Z</time>
      </trkpt>
      <trkpt lat="43.97645" lon="4.54874">
        <ele>70.3134765625</ele>
        <time>2011-07-25T10:15:46Z</time>
      </trkpt>
      <trkpt lat="43.97661" lon="4.5481">
        <ele>70.3134765625</ele>
        <time>2011-07-25T10:15:58Z</time>
      </trkpt>
      <trkpt lat="43.97633" lon="4.54781">
        <ele>70.794189453125</ele>
        <time>2011-07-25T10:16:12Z</time>
      </trkpt>
      <trkpt lat="43.97588" lon="4.54763">
        <ele>68.87158203125</ele>
        <time>2011-07-25T10:16:24Z</time>
      </trkpt>
      <trkpt lat="43.97542" lon="4.54745">
        <ele>66.46826171875</ele>
        <time>2011-07-25T10:16:34Z</time>
      </trkpt>
      <trkpt lat="43.97497" lon="4.54744">
        <ele>66.46826171875</ele>
        <time>2011-07-25T10:16:45Z</time>
      </trkpt>
      <trkpt lat="43.97498" lon="4.54751">
        <ele>67.4296875</ele>
        <time>2011-07-25T10:17:04Z</time>
      </trkpt>
      <trkpt lat="43.97506" lon="4.5474">
        <ele>69.352294921875</ele>
        <time>2011-07-25T10:50:35Z</time>
      </trkpt>
      <trkpt lat="43.97544" lon="4.54745">
        <ele>66.948974609375</ele>
        <time>2011-07-25T10:55:11Z</time>
      </trkpt>
      <trkpt lat="43.97588" lon="4.54764">
        <ele>68.87158203125</ele>
        <time>2011-07-25T10:55:37Z</time>
      </trkpt>
      <trkpt lat="43.97633" lon="4.54781">
        <ele>70.3134765625</ele>
        <time>2011-07-25T10:56:01Z</time>
      </trkpt>
      <trkpt lat="43.97678" lon="4.54776">
        <ele>72.236206054688</ele>
        <time>2011-07-25T10:56:26Z</time>
      </trkpt>
      <trkpt lat="43.97723" lon="4.54764">
        <ele>74.639526367188</ele>
        <time>2011-07-25T10:56:51Z</time>
      </trkpt>
      <trkpt lat="43.97761" lon="4.54734">
        <ele>77.042846679688</ele>
        <time>2011-07-25T10:57:18Z</time>
      </trkpt>
      <trkpt lat="43.97803" lon="4.54707">
        <ele>80.407470703125</ele>
        <time>2011-07-25T10:57:45Z</time>
      </trkpt>
      <trkpt lat="43.97827" lon="4.54651">
        <ele>80.407470703125</ele>
        <time>2011-07-25T10:58:09Z</time>
      </trkpt>
      <trkpt lat="43.97861" lon="4.54608">
        <ele>81.368774414062</ele>
        <time>2011-07-25T10:58:31Z</time>
      </trkpt>
      <trkpt lat="43.97883" lon="4.54552">
        <ele>82.330078125</ele>
        <time>2011-07-25T10:58:51Z</time>
      </trkpt>
      <trkpt lat="43.97905" lon="4.54497">
        <ele>84.252685546875</ele>
        <time>2011-07-25T10:59:11Z</time>
      </trkpt>
      <trkpt lat="43.9793" lon="4.54443">
        <ele>85.213989257812</ele>
        <time>2011-07-25T10:59:31Z</time>
      </trkpt>
      <trkpt lat="43.9795" lon="4.54385">
        <ele>84.7333984375</ele>
        <time>2011-07-25T10:59:49Z</time>
      </trkpt>
      <trkpt lat="43.97973" lon="4.54327">
        <ele>85.694580078125</ele>
        <time>2011-07-25T11:00:05Z</time>
      </trkpt>
      <trkpt lat="43.98005" lon="4.54281">
        <ele>86.17529296875</ele>
        <time>2011-07-25T11:00:21Z</time>
      </trkpt>
      <trkpt lat="43.98044" lon="4.54247">
        <ele>87.136596679688</ele>
        <time>2011-07-25T11:00:38Z</time>
      </trkpt>
      <trkpt lat="43.9806" lon="4.54188">
        <ele>87.6171875</ele>
        <time>2011-07-25T11:00:55Z</time>
      </trkpt>
      <trkpt lat="43.98074" lon="4.54126">
        <ele>88.098022460938</ele>
        <time>2011-07-25T11:01:11Z</time>
      </trkpt>
      <trkpt lat="43.98071" lon="4.54061">
        <ele>88.578735351562</ele>
        <time>2011-07-25T11:01:27Z</time>
      </trkpt>
      <trkpt lat="43.98073" lon="4.53998">
        <ele>90.98193359375</ele>
        <time>2011-07-25T11:01:46Z</time>
      </trkpt>
      <trkpt lat="43.98084" lon="4.53937">
        <ele>90.98193359375</ele>
        <time>2011-07-25T11:02:04Z</time>
      </trkpt>
      <trkpt lat="43.98101" lon="4.53877">
        <ele>92.904541015625</ele>
        <time>2011-07-25T11:02:21Z</time>
      </trkpt>
      <trkpt lat="43.98126" lon="4.53825">
        <ele>94.8271484375</ele>
        <time>2011-07-25T11:02:39Z</time>
      </trkpt>
      <trkpt lat="43.98147" lon="4.53768">
        <ele>98.672485351562</ele>
        <time>2011-07-25T11:02:58Z</time>
      </trkpt>
      <trkpt lat="43.98159" lon="4.53704">
        <ele>98.672485351562</ele>
        <time>2011-07-25T11:03:17Z</time>
      </trkpt>
      <trkpt lat="43.9818" lon="4.53646">
        <ele>97.23046875</ele>
        <time>2011-07-25T11:03:31Z</time>
      </trkpt>
      <trkpt lat="43.98213" lon="4.53602">
        <ele>96.749877929688</ele>
        <time>2011-07-25T11:03:45Z</time>
      </trkpt>
      <trkpt lat="43.98257" lon="4.53591">
        <ele>97.23046875</ele>
        <time>2011-07-25T11:03:58Z</time>
      </trkpt>
      <trkpt lat="43.98305" lon="4.53587">
        <ele>99.6337890625</ele>
        <time>2011-07-25T11:04:12Z</time>
      </trkpt>
      <trkpt lat="43.98349" lon="4.53578">
        <ele>100.59509277344</ele>
        <time>2011-07-25T11:04:26Z</time>
      </trkpt>
      <trkpt lat="43.98394" lon="4.53565">
        <ele>102.51770019531</ele>
        <time>2011-07-25T11:04:43Z</time>
      </trkpt>
      <trkpt lat="43.9837" lon="4.53516">
        <ele>102.51770019531</ele>
        <time>2011-07-25T11:05:02Z</time>
      </trkpt>
      <trkpt lat="43.98328" lon="4.53485">
        <ele>104.4404296875</ele>
        <time>2011-07-25T11:05:24Z</time>
      </trkpt>
      <trkpt lat="43.98293" lon="4.53444">
        <ele>108.28564453125</ele>
        <time>2011-07-25T11:05:46Z</time>
      </trkpt>
      <trkpt lat="43.98246" lon="4.53453">
        <ele>110.68884277344</ele>
        <time>2011-07-25T11:06:08Z</time>
      </trkpt>
      <trkpt lat="43.98201" lon="4.53444">
        <ele>112.13098144531</ele>
        <time>2011-07-25T11:06:52Z</time>
      </trkpt>
      <trkpt lat="43.98161" lon="4.53407">
        <ele>109.24694824219</ele>
        <time>2011-07-25T11:07:09Z</time>
      </trkpt>
      <trkpt lat="43.98114" lon="4.53383">
        <ele>105.88244628906</ele>
        <time>2011-07-25T11:07:53Z</time>
      </trkpt>
      <trkpt lat="43.98121" lon="4.5337">
        <ele>102.99829101562</ele>
        <time>2011-07-25T11:08:30Z</time>
      </trkpt>
      <trkpt lat="43.98079" lon="4.53359">
        <ele>102.99829101562</ele>
        <time>2011-07-25T11:13:28Z</time>
      </trkpt>
      <trkpt lat="43.98055" lon="4.53411">
        <ele>100.11450195312</ele>
        <time>2011-07-25T11:14:13Z</time>
      </trkpt>
      <trkpt lat="43.98078" lon="4.53357">
        <ele>102.037109375</ele>
        <time>2011-07-25T11:14:37Z</time>
      </trkpt>
      <trkpt lat="43.98077" lon="4.53302">
        <ele>104.92102050781</ele>
        <time>2011-07-25T11:15:01Z</time>
      </trkpt>
      <trkpt lat="43.98036" lon="4.53273">
        <ele>100.59509277344</ele>
        <time>2011-07-25T11:15:56Z</time>
      </trkpt>
      <trkpt lat="43.97976" lon="4.5325">
        <ele>97.711181640625</ele>
        <time>2011-07-25T11:16:09Z</time>
      </trkpt>
      <trkpt lat="43.97954" lon="4.53207">
        <ele>97.23046875</ele>
        <time>2011-07-25T11:16:56Z</time>
      </trkpt>
      <trkpt lat="43.97925" lon="4.53161">
        <ele>96.749877929688</ele>
        <time>2011-07-25T11:17:23Z</time>
      </trkpt>
      <trkpt lat="43.97892" lon="4.53126">
        <ele>96.749877929688</ele>
        <time>2011-07-25T11:18:00Z</time>
      </trkpt>
      <trkpt lat="43.97847" lon="4.53121">
        <ele>93.865844726562</ele>
        <time>2011-07-25T11:18:20Z</time>
      </trkpt>
      <trkpt lat="43.978" lon="4.53129">
        <ele>92.904541015625</ele>
        <time>2011-07-25T11:18:41Z</time>
      </trkpt>
      <trkpt lat="43.97752" lon="4.5314">
        <ele>90.501342773438</ele>
        <time>2011-07-25T11:18:56Z</time>
      </trkpt>
      <trkpt lat="43.97715" lon="4.53168">
        <ele>89.059326171875</ele>
        <time>2011-07-25T11:21:15Z</time>
      </trkpt>
      <trkpt lat="43.97669" lon="4.53183">
        <ele>88.098022460938</ele>
        <time>2011-07-25T11:24:32Z</time>
      </trkpt>
      <trkpt lat="43.97622" lon="4.53188">
        <ele>87.6171875</ele>
        <time>2011-07-25T11:24:56Z</time>
      </trkpt>
      <trkpt lat="43.97576" lon="4.53193">
        <ele>88.098022460938</ele>
        <time>2011-07-25T11:25:15Z</time>
      </trkpt>
      <trkpt lat="43.9754" lon="4.53197">
        <ele>89.539916992188</ele>
        <time>2011-07-25T11:27:23Z</time>
      </trkpt>
      <trkpt lat="43.97497" lon="4.53203">
        <ele>89.059326171875</ele>
        <time>2011-07-25T11:27:45Z</time>
      </trkpt>
      <trkpt lat="43.97453" lon="4.53204">
        <ele>86.656005859375</ele>
        <time>2011-07-25T11:28:03Z</time>
      </trkpt>
      <trkpt lat="43.97406" lon="4.53227">
        <ele>87.6171875</ele>
        <time>2011-07-25T11:28:12Z</time>
      </trkpt>
      <trkpt lat="43.97362" lon="4.53214">
        <ele>88.098022460938</ele>
        <time>2011-07-25T11:28:27Z</time>
      </trkpt>
      <trkpt lat="43.97321" lon="4.53196">
        <ele>86.656005859375</ele>
        <time>2011-07-25T11:28:53Z</time>
      </trkpt>
      <trkpt lat="43.9729" lon="4.53145">
        <ele>84.7333984375</ele>
        <time>2011-07-25T11:29:06Z</time>
      </trkpt>
      <trkpt lat="43.97256" lon="4.53101">
        <ele>82.330078125</ele>
        <time>2011-07-25T11:29:20Z</time>
      </trkpt>
      <trkpt lat="43.97229" lon="4.53045">
        <ele>78.965454101562</ele>
        <time>2011-07-25T11:29:29Z</time>
      </trkpt>
      <trkpt lat="43.97203" lon="4.52984">
        <ele>74.639526367188</ele>
        <time>2011-07-25T11:29:36Z</time>
      </trkpt>
      <trkpt lat="43.9718" lon="4.5293">
        <ele>73.197631835938</ele>
        <time>2011-07-25T11:29:43Z</time>
      </trkpt>
      <trkpt lat="43.9714" lon="4.52911">
        <ele>73.67822265625</ele>
        <time>2011-07-25T11:29:57Z</time>
      </trkpt>
      <trkpt lat="43.97098" lon="4.52881">
        <ele>72.716918945312</ele>
        <time>2011-07-25T11:30:08Z</time>
      </trkpt>
      <trkpt lat="43.97059" lon="4.52866">
        <ele>70.794189453125</ele>
        <time>2011-07-25T11:30:26Z</time>
      </trkpt>
      <trkpt lat="43.97026" lon="4.52809">
        <ele>70.3134765625</ele>
        <time>2011-07-25T11:30:41Z</time>
      </trkpt>
      <trkpt lat="43.96991" lon="4.52766">
        <ele>68.87158203125</ele>
        <time>2011-07-25T11:30:53Z</time>
      </trkpt>
      <trkpt lat="43.96956" lon="4.52723">
        <ele>67.910278320312</ele>
        <time>2011-07-25T11:31:04Z</time>
      </trkpt>
      <trkpt lat="43.96941" lon="4.52666">
        <ele>65.987670898438</ele>
        <time>2011-07-25T11:31:17Z</time>
      </trkpt>
      <trkpt lat="43.96915" lon="4.52621">
        <ele>65.0263671875</ele>
        <time>2011-07-25T11:31:32Z</time>
      </trkpt>
      <trkpt lat="43.96877" lon="4.52588">
        <ele>62.142333984375</ele>
        <time>2011-07-25T11:31:45Z</time>
      </trkpt>
      <trkpt lat="43.96859" lon="4.52528">
        <ele>61.181030273438</ele>
        <time>2011-07-25T11:31:59Z</time>
      </trkpt>
      <trkpt lat="43.96839" lon="4.52476">
        <ele>59.739135742188</ele>
        <time>2011-07-25T11:32:12Z</time>
      </trkpt>
      <trkpt lat="43.9685" lon="4.52411">
        <ele>60.700317382812</ele>
        <time>2011-07-25T11:32:31Z</time>
      </trkpt>
      <trkpt lat="43.96876" lon="4.5238">
        <ele>61.661743164062</ele>
        <time>2011-07-25T11:33:00Z</time>
      </trkpt>
      <trkpt lat="43.96917" lon="4.52356">
        <ele>61.181030273438</ele>
        <time>2011-07-25T11:35:38Z</time>
      </trkpt>
      <trkpt lat="43.96953" lon="4.52316">
        <ele>59.739135742188</ele>
        <time>2011-07-25T11:35:53Z</time>
      </trkpt>
      <trkpt lat="43.96994" lon="4.52288">
        <ele>58.777709960938</ele>
        <time>2011-07-25T11:36:11Z</time>
      </trkpt>
      <trkpt lat="43.97029" lon="4.5225">
        <ele>60.700317382812</ele>
        <time>2011-07-25T11:36:33Z</time>
      </trkpt>
      <trkpt lat="43.97039" lon="4.52188">
        <ele>61.181030273438</ele>
        <time>2011-07-25T11:36:52Z</time>
      </trkpt>
      <trkpt lat="43.97047" lon="4.52122">
        <ele>64.065063476562</ele>
        <time>2011-07-25T11:37:12Z</time>
      </trkpt>
      <trkpt lat="43.97068" lon="4.52068">
        <ele>66.46826171875</ele>
        <time>2011-07-25T11:37:35Z</time>
      </trkpt>
      <trkpt lat="43.97099" lon="4.52021">
        <ele>68.390869140625</ele>
        <time>2011-07-25T11:37:55Z</time>
      </trkpt>
      <trkpt lat="43.97117" lon="4.51963">
        <ele>69.352294921875</ele>
        <time>2011-07-25T11:38:12Z</time>
      </trkpt>
      <trkpt lat="43.97142" lon="4.51908">
        <ele>71.755493164062</ele>
        <time>2011-07-25T11:38:30Z</time>
      </trkpt>
      <trkpt lat="43.97183" lon="4.51877">
        <ele>72.716918945312</ele>
        <time>2011-07-25T11:38:46Z</time>
      </trkpt>
      <trkpt lat="43.97227" lon="4.51851">
        <ele>72.716918945312</ele>
        <time>2011-07-25T11:39:04Z</time>
      </trkpt>
      <trkpt lat="43.9727" lon="4.51826">
        <ele>73.67822265625</ele>
        <time>2011-07-25T11:39:36Z</time>
      </trkpt>
      <trkpt lat="43.97312" lon="4.51831">
        <ele>74.158813476562</ele>
        <time>2011-07-25T11:39:56Z</time>
      </trkpt>
      <trkpt lat="43.97356" lon="4.51839">
        <ele>74.639526367188</ele>
        <time>2011-07-25T11:40:15Z</time>
      </trkpt>
      <trkpt lat="43.97395" lon="4.51805">
        <ele>74.639526367188</ele>
        <time>2011-07-25T11:40:37Z</time>
      </trkpt>
      <trkpt lat="43.97438" lon="4.51787">
        <ele>73.67822265625</ele>
        <time>2011-07-25T11:40:57Z</time>
      </trkpt>
      <trkpt lat="43.97484" lon="4.5177">
        <ele>75.600830078125</ele>
        <time>2011-07-25T11:41:14Z</time>
      </trkpt>
      <trkpt lat="43.97532" lon="4.51758">
        <ele>75.120239257812</ele>
        <time>2011-07-25T11:41:33Z</time>
      </trkpt>
      <trkpt lat="43.97576" lon="4.51773">
        <ele>75.600830078125</ele>
        <time>2011-07-25T11:42:13Z</time>
      </trkpt>
      <trkpt lat="43.97605" lon="4.51756">
        <ele>74.158813476562</ele>
        <time>2011-07-25T11:45:07Z</time>
      </trkpt>
      <trkpt lat="43.97642" lon="4.51716">
        <ele>73.67822265625</ele>
        <time>2011-07-25T11:45:24Z</time>
      </trkpt>
      <trkpt lat="43.97684" lon="4.51682">
        <ele>73.67822265625</ele>
        <time>2011-07-25T11:45:39Z</time>
      </trkpt>
      <trkpt lat="43.97724" lon="4.51644">
        <ele>73.197631835938</ele>
        <time>2011-07-25T11:45:53Z</time>
      </trkpt>
      <trkpt lat="43.97764" lon="4.5161">
        <ele>72.716918945312</ele>
        <time>2011-07-25T11:46:07Z</time>
      </trkpt>
      <trkpt lat="43.97809" lon="4.51606">
        <ele>74.158813476562</ele>
        <time>2011-07-25T11:46:25Z</time>
      </trkpt>
      <trkpt lat="43.97855" lon="4.51622">
        <ele>75.600830078125</ele>
        <time>2011-07-25T11:46:42Z</time>
      </trkpt>
      <trkpt lat="43.97899" lon="4.51642">
        <ele>76.562133789062</ele>
        <time>2011-07-25T11:46:58Z</time>
      </trkpt>
      <trkpt lat="43.97942" lon="4.51662">
        <ele>78.004028320312</ele>
        <time>2011-07-25T11:47:13Z</time>
      </trkpt>
      <trkpt lat="43.97987" lon="4.51681">
        <ele>79.926635742188</ele>
        <time>2011-07-25T11:47:29Z</time>
      </trkpt>
      <trkpt lat="43.98033" lon="4.51692">
        <ele>82.330078125</ele>
        <time>2011-07-25T11:47:50Z</time>
      </trkpt>
      <trkpt lat="43.98043" lon="4.51632">
        <ele>82.810791015625</ele>
        <time>2011-07-25T11:48:12Z</time>
      </trkpt>
      <trkpt lat="43.98049" lon="4.51566">
        <ele>83.291381835938</ele>
        <time>2011-07-25T11:48:28Z</time>
      </trkpt>
      <trkpt lat="43.98056" lon="4.51502">
        <ele>82.810791015625</ele>
        <time>2011-07-25T11:48:42Z</time>
      </trkpt>
      <trkpt lat="43.98075" lon="4.51442">
        <ele>81.849365234375</ele>
        <time>2011-07-25T11:48:55Z</time>
      </trkpt>
      <trkpt lat="43.98085" lon="4.51378">
        <ele>80.88818359375</ele>
        <time>2011-07-25T11:49:05Z</time>
      </trkpt>
      <trkpt lat="43.98097" lon="4.51312">
        <ele>80.88818359375</ele>
        <time>2011-07-25T11:49:16Z</time>
      </trkpt>
      <trkpt lat="43.98104" lon="4.51249">
        <ele>80.88818359375</ele>
        <time>2011-07-25T11:49:27Z</time>
      </trkpt>
      <trkpt lat="43.981" lon="4.51183">
        <ele>80.407470703125</ele>
        <time>2011-07-25T11:49:38Z</time>
      </trkpt>
      <trkpt lat="43.98088" lon="4.51121">
        <ele>80.407470703125</ele>
        <time>2011-07-25T11:49:49Z</time>
      </trkpt>
      <trkpt lat="43.9806" lon="4.51069">
        <ele>81.849365234375</ele>
        <time>2011-07-25T11:50:00Z</time>
      </trkpt>
      <trkpt lat="43.98055" lon="4.51001">
        <ele>79.926635742188</ele>
        <time>2011-07-25T11:50:11Z</time>
      </trkpt>
      <trkpt lat="43.98044" lon="4.50933">
        <ele>78.484741210938</ele>
        <time>2011-07-25T11:50:21Z</time>
      </trkpt>
      <trkpt lat="43.98034" lon="4.50871">
        <ele>78.004028320312</ele>
        <time>2011-07-25T11:50:31Z</time>
      </trkpt>
      <trkpt lat="43.98026" lon="4.50806">
        <ele>78.004028320312</ele>
        <time>2011-07-25T11:50:44Z</time>
      </trkpt>
      <trkpt lat="43.98023" lon="4.50743">
        <ele>78.484741210938</ele>
        <time>2011-07-25T11:50:56Z</time>
      </trkpt>
      <trkpt lat="43.98016" lon="4.50678">
        <ele>77.5234375</ele>
        <time>2011-07-25T11:51:08Z</time>
      </trkpt>
      <trkpt lat="43.98008" lon="4.50613">
        <ele>77.5234375</ele>
        <time>2011-07-25T11:51:19Z</time>
      </trkpt>
      <trkpt lat="43.98008" lon="4.50546">
        <ele>77.042846679688</ele>
        <time>2011-07-25T11:51:30Z</time>
      </trkpt>
      <trkpt lat="43.98012" lon="4.50481">
        <ele>77.042846679688</ele>
        <time>2011-07-25T11:51:41Z</time>
      </trkpt>
      <trkpt lat="43.98012" lon="4.50418">
        <ele>78.004028320312</ele>
        <time>2011-07-25T11:51:53Z</time>
      </trkpt>
      <trkpt lat="43.98014" lon="4.50354">
        <ele>78.484741210938</ele>
        <time>2011-07-25T11:52:05Z</time>
      </trkpt>
      <trkpt lat="43.98014" lon="4.50289">
        <ele>78.965454101562</ele>
        <time>2011-07-25T11:52:17Z</time>
      </trkpt>
      <trkpt lat="43.98012" lon="4.50223">
        <ele>79.926635742188</ele>
        <time>2011-07-25T11:52:30Z</time>
      </trkpt>
      <trkpt lat="43.98009" lon="4.50162">
        <ele>80.88818359375</ele>
        <time>2011-07-25T11:52:42Z</time>
      </trkpt>
      <trkpt lat="43.98003" lon="4.50097">
        <ele>82.330078125</ele>
        <time>2011-07-25T11:52:56Z</time>
      </trkpt>
      <trkpt lat="43.98001" lon="4.50033">
        <ele>83.291381835938</ele>
        <time>2011-07-25T11:53:12Z</time>
      </trkpt>
      <trkpt lat="43.98005" lon="4.49968">
        <ele>83.291381835938</ele>
        <time>2011-07-25T11:53:27Z</time>
      </trkpt>
      <trkpt lat="43.98037" lon="4.4995">
        <ele>84.252685546875</ele>
        <time>2011-07-25T11:54:36Z</time>
      </trkpt>
      <trkpt lat="43.98081" lon="4.49952">
        <ele>84.7333984375</ele>
        <time>2011-07-25T11:54:53Z</time>
      </trkpt>
      <trkpt lat="43.98126" lon="4.49956">
        <ele>87.136596679688</ele>
        <time>2011-07-25T11:55:09Z</time>
      </trkpt>
      <trkpt lat="43.98172" lon="4.49944">
        <ele>88.098022460938</ele>
        <time>2011-07-25T11:55:25Z</time>
      </trkpt>
      <trkpt lat="43.98209" lon="4.4991">
        <ele>88.578735351562</ele>
        <time>2011-07-25T11:55:39Z</time>
      </trkpt>
      <trkpt lat="43.9824" lon="4.49871">
        <ele>90.020629882812</ele>
        <time>2011-07-25T11:55:54Z</time>
      </trkpt>
      <trkpt lat="43.98231" lon="4.49809">
        <ele>90.020629882812</ele>
        <time>2011-07-25T11:56:12Z</time>
      </trkpt>
      <trkpt lat="43.98214" lon="4.49749">
        <ele>90.501342773438</ele>
        <time>2011-07-25T11:56:28Z</time>
      </trkpt>
      <trkpt lat="43.98184" lon="4.49698">
        <ele>87.6171875</ele>
        <time>2011-07-25T11:56:44Z</time>
      </trkpt>
      <trkpt lat="43.98159" lon="4.49638">
        <ele>87.6171875</ele>
        <time>2011-07-25T11:57:00Z</time>
      </trkpt>
      <trkpt lat="43.98155" lon="4.49576">
        <ele>86.17529296875</ele>
        <time>2011-07-25T11:57:17Z</time>
      </trkpt>
      <trkpt lat="43.98113" lon="4.49545">
        <ele>84.252685546875</ele>
        <time>2011-07-25T11:57:32Z</time>
      </trkpt>
      <trkpt lat="43.98132" lon="4.49489">
        <ele>81.368774414062</ele>
        <time>2011-07-25T11:57:46Z</time>
      </trkpt>
      <trkpt lat="43.98126" lon="4.49421">
        <ele>77.5234375</ele>
        <time>2011-07-25T11:57:55Z</time>
      </trkpt>
      <trkpt lat="43.9813" lon="4.49352">
        <ele>76.081420898438</ele>
        <time>2011-07-25T11:58:04Z</time>
      </trkpt>
      <trkpt lat="43.98132" lon="4.49285">
        <ele>77.042846679688</ele>
        <time>2011-07-25T11:58:14Z</time>
      </trkpt>
      <trkpt lat="43.98135" lon="4.49223">
        <ele>76.562133789062</ele>
        <time>2011-07-25T11:58:29Z</time>
      </trkpt>
      <trkpt lat="43.9814" lon="4.49159">
        <ele>76.562133789062</ele>
        <time>2011-07-25T11:58:43Z</time>
      </trkpt>
      <trkpt lat="43.9816" lon="4.491">
        <ele>76.081420898438</ele>
        <time>2011-07-25T11:58:57Z</time>
      </trkpt>
      <trkpt lat="43.98172" lon="4.49039">
        <ele>77.5234375</ele>
        <time>2011-07-25T11:59:11Z</time>
      </trkpt>
      <trkpt lat="43.98179" lon="4.48975">
        <ele>78.484741210938</ele>
        <time>2011-07-25T11:59:25Z</time>
      </trkpt>
      <trkpt lat="43.98172" lon="4.48912">
        <ele>79.926635742188</ele>
        <time>2011-07-25T11:59:40Z</time>
      </trkpt>
      <trkpt lat="43.98165" lon="4.4885">
        <ele>81.849365234375</ele>
        <time>2011-07-25T11:59:54Z</time>
      </trkpt>
      <trkpt lat="43.98156" lon="4.48789">
        <ele>84.7333984375</ele>
        <time>2011-07-25T12:00:09Z</time>
      </trkpt>
      <trkpt lat="43.98155" lon="4.48723">
        <ele>79.926635742188</ele>
        <time>2011-07-25T12:00:47Z</time>
      </trkpt>
      <trkpt lat="43.98167" lon="4.48658">
        <ele>76.081420898438</ele>
        <time>2011-07-25T12:00:55Z</time>
      </trkpt>
      <trkpt lat="43.98183" lon="4.48596">
        <ele>73.197631835938</ele>
        <time>2011-07-25T12:01:02Z</time>
      </trkpt>
      <trkpt lat="43.98196" lon="4.48531">
        <ele>72.236206054688</ele>
        <time>2011-07-25T12:01:10Z</time>
      </trkpt>
      <trkpt lat="43.98201" lon="4.48473">
        <ele>74.158813476562</ele>
        <time>2011-07-25T12:02:06Z</time>
      </trkpt>
      <trkpt lat="43.98211" lon="4.4844">
        <ele>75.600830078125</ele>
        <time>2011-07-25T12:03:30Z</time>
      </trkpt>
      <trkpt lat="43.98197" lon="4.48348">
        <ele>75.120239257812</ele>
        <time>2011-07-25T12:03:50Z</time>
      </trkpt>
      <trkpt lat="43.98207" lon="4.48282">
        <ele>74.639526367188</ele>
        <time>2011-07-25T12:04:06Z</time>
      </trkpt>
      <trkpt lat="43.98216" lon="4.48214">
        <ele>76.562133789062</ele>
        <time>2011-07-25T12:04:21Z</time>
      </trkpt>
      <trkpt lat="43.98221" lon="4.4815">
        <ele>78.004028320312</ele>
        <time>2011-07-25T12:04:34Z</time>
      </trkpt>
      <trkpt lat="43.9822" lon="4.48078">
        <ele>78.004028320312</ele>
        <time>2011-07-25T12:04:48Z</time>
      </trkpt>
      <trkpt lat="43.98239" lon="4.48018">
        <ele>78.965454101562</ele>
        <time>2011-07-25T12:05:14Z</time>
      </trkpt>
      <trkpt lat="43.98259" lon="4.4796">
        <ele>81.849365234375</ele>
        <time>2011-07-25T12:05:30Z</time>
      </trkpt>
      <trkpt lat="43.98283" lon="4.47906">
        <ele>83.291381835938</ele>
        <time>2011-07-25T12:05:55Z</time>
      </trkpt>
      <trkpt lat="43.98291" lon="4.47831">
        <ele>81.849365234375</ele>
        <time>2011-07-25T12:06:14Z</time>
      </trkpt>
      <trkpt lat="43.98288" lon="4.47762">
        <ele>80.407470703125</ele>
        <time>2011-07-25T12:06:26Z</time>
      </trkpt>
      <trkpt lat="43.98295" lon="4.47698">
        <ele>74.639526367188</ele>
        <time>2011-07-25T12:06:39Z</time>
      </trkpt>
      <trkpt lat="43.9834" lon="4.47657">
        <ele>68.390869140625</ele>
        <time>2011-07-25T12:06:48Z</time>
      </trkpt>
      <trkpt lat="43.98376" lon="4.47615">
        <ele>68.390869140625</ele>
        <time>2011-07-25T12:06:57Z</time>
      </trkpt>
      <trkpt lat="43.98374" lon="4.47553">
        <ele>69.832885742188</ele>
        <time>2011-07-25T12:07:50Z</time>
      </trkpt>
      <trkpt lat="43.98361" lon="4.47492">
        <ele>73.197631835938</ele>
        <time>2011-07-25T12:08:14Z</time>
      </trkpt>
      <trkpt lat="43.98366" lon="4.47431">
        <ele>78.965454101562</ele>
        <time>2011-07-25T12:08:38Z</time>
      </trkpt>
      <trkpt lat="43.98383" lon="4.47377">
        <ele>80.407470703125</ele>
        <time>2011-07-25T12:09:24Z</time>
      </trkpt>
      <trkpt lat="43.9841" lon="4.47321">
        <ele>78.004028320312</ele>
        <time>2011-07-25T12:09:38Z</time>
      </trkpt>
      <trkpt lat="43.98431" lon="4.47266">
        <ele>78.004028320312</ele>
        <time>2011-07-25T12:09:50Z</time>
      </trkpt>
      <trkpt lat="43.98452" lon="4.47207">
        <ele>76.081420898438</ele>
        <time>2011-07-25T12:10:01Z</time>
      </trkpt>
      <trkpt lat="43.98466" lon="4.47148">
        <ele>75.600830078125</ele>
        <time>2011-07-25T12:10:12Z</time>
      </trkpt>
      <trkpt lat="43.98483" lon="4.47085">
        <ele>75.600830078125</ele>
        <time>2011-07-25T12:10:24Z</time>
      </trkpt>
      <trkpt lat="43.98496" lon="4.47023">
        <ele>76.081420898438</ele>
        <time>2011-07-25T12:10:36Z</time>
      </trkpt>
      <trkpt lat="43.98521" lon="4.46969">
        <ele>78.004028320312</ele>
        <time>2011-07-25T12:10:51Z</time>
      </trkpt>
      <trkpt lat="43.98528" lon="4.46903">
        <ele>78.965454101562</ele>
        <time>2011-07-25T12:11:06Z</time>
      </trkpt>
      <trkpt lat="43.98533" lon="4.4684">
        <ele>79.446044921875</ele>
        <time>2011-07-25T12:11:20Z</time>
      </trkpt>
      <trkpt lat="43.9854" lon="4.46776">
        <ele>80.407470703125</ele>
        <time>2011-07-25T12:11:34Z</time>
      </trkpt>
      <trkpt lat="43.98552" lon="4.46716">
        <ele>81.368774414062</ele>
        <time>2011-07-25T12:11:47Z</time>
      </trkpt>
      <trkpt lat="43.98563" lon="4.46653">
        <ele>80.88818359375</ele>
        <time>2011-07-25T12:11:59Z</time>
      </trkpt>
      <trkpt lat="43.98568" lon="4.46588">
        <ele>82.330078125</ele>
        <time>2011-07-25T12:12:11Z</time>
      </trkpt>
      <trkpt lat="43.98577" lon="4.46525">
        <ele>83.291381835938</ele>
        <time>2011-07-25T12:12:23Z</time>
      </trkpt>
      <trkpt lat="43.98594" lon="4.46464">
        <ele>83.77197265625</ele>
        <time>2011-07-25T12:12:35Z</time>
      </trkpt>
      <trkpt lat="43.98615" lon="4.46407">
        <ele>85.213989257812</ele>
        <time>2011-07-25T12:12:47Z</time>
      </trkpt>
      <trkpt lat="43.98647" lon="4.46361">
        <ele>87.136596679688</ele>
        <time>2011-07-25T12:12:59Z</time>
      </trkpt>
      <trkpt lat="43.98685" lon="4.46326">
        <ele>87.6171875</ele>
        <time>2011-07-25T12:13:12Z</time>
      </trkpt>
      <trkpt lat="43.9872" lon="4.46284">
        <ele>87.6171875</ele>
        <time>2011-07-25T12:13:24Z</time>
      </trkpt>
      <trkpt lat="43.98744" lon="4.46226">
        <ele>86.656005859375</ele>
        <time>2011-07-25T12:13:35Z</time>
      </trkpt>
      <trkpt lat="43.98764" lon="4.46168">
        <ele>86.17529296875</ele>
        <time>2011-07-25T12:13:46Z</time>
      </trkpt>
      <trkpt lat="43.98782" lon="4.46109">
        <ele>84.7333984375</ele>
        <time>2011-07-25T12:13:56Z</time>
      </trkpt>
      <trkpt lat="43.98798" lon="4.46047">
        <ele>83.291381835938</ele>
        <time>2011-07-25T12:14:06Z</time>
      </trkpt>
      <trkpt lat="43.98808" lon="4.45984">
        <ele>82.330078125</ele>
        <time>2011-07-25T12:14:16Z</time>
      </trkpt>
      <trkpt lat="43.98811" lon="4.45918">
        <ele>82.330078125</ele>
        <time>2011-07-25T12:14:27Z</time>
      </trkpt>
      <trkpt lat="43.98815" lon="4.45852">
        <ele>81.368774414062</ele>
        <time>2011-07-25T12:14:38Z</time>
      </trkpt>
      <trkpt lat="43.98825" lon="4.45793">
        <ele>82.810791015625</ele>
        <time>2011-07-25T12:14:49Z</time>
      </trkpt>
      <trkpt lat="43.98838" lon="4.45733">
        <ele>82.810791015625</ele>
        <time>2011-07-25T12:15:01Z</time>
      </trkpt>
      <trkpt lat="43.98851" lon="4.45669">
        <ele>80.88818359375</ele>
        <time>2011-07-25T12:15:12Z</time>
      </trkpt>
      <trkpt lat="43.98865" lon="4.45609">
        <ele>78.965454101562</ele>
        <time>2011-07-25T12:15:22Z</time>
      </trkpt>
      <trkpt lat="43.98886" lon="4.45552">
        <ele>78.965454101562</ele>
        <time>2011-07-25T12:17:21Z</time>
      </trkpt>
      <trkpt lat="43.98912" lon="4.45494">
        <ele>77.5234375</ele>
        <time>2011-07-25T12:17:36Z</time>
      </trkpt>
      <trkpt lat="43.98931" lon="4.45435">
        <ele>78.004028320312</ele>
        <time>2011-07-25T12:17:50Z</time>
      </trkpt>
      <trkpt lat="43.98955" lon="4.45387">
        <ele>79.446044921875</ele>
        <time>2011-07-25T12:18:06Z</time>
      </trkpt>
      <trkpt lat="43.99007" lon="4.45405">
        <ele>78.484741210938</ele>
        <time>2011-07-25T12:18:22Z</time>
      </trkpt>
      <trkpt lat="43.99033" lon="4.45405">
        <ele>79.926635742188</ele>
        <time>2011-07-25T12:18:46Z</time>
      </trkpt>
      <trkpt lat="43.99035" lon="4.45446">
        <ele>78.965454101562</ele>
        <time>2011-07-25T12:19:07Z</time>
      </trkpt>
      <trkpt lat="43.9908" lon="4.4547">
        <ele>80.407470703125</ele>
        <time>2011-07-25T12:19:25Z</time>
      </trkpt>
      <trkpt lat="43.99125" lon="4.4549">
        <ele>81.849365234375</ele>
        <time>2011-07-25T12:19:44Z</time>
      </trkpt>
      <trkpt lat="43.99095" lon="4.45533">
        <ele>87.6171875</ele>
        <time>2011-07-25T12:20:11Z</time>
      </trkpt>
      <trkpt lat="43.99117" lon="4.45589">
        <ele>96.749877929688</ele>
        <time>2011-07-25T12:20:48Z</time>
      </trkpt>
      <trkpt lat="43.99162" lon="4.45587">
        <ele>103.47900390625</ele>
        <time>2011-07-25T12:21:23Z</time>
      </trkpt>
      <trkpt lat="43.99183" lon="4.4564">
        <ele>110.20825195312</ele>
        <time>2011-07-25T12:21:56Z</time>
      </trkpt>
      <trkpt lat="43.99199" lon="4.45699">
        <ele>114.05358886719</ele>
        <time>2011-07-25T12:22:28Z</time>
      </trkpt>
      <trkpt lat="43.99209" lon="4.45761">
        <ele>121.744140625</ele>
        <time>2011-07-25T12:23:02Z</time>
      </trkpt>
      <trkpt lat="43.99211" lon="4.45823">
        <ele>129.43469238281</ele>
        <time>2011-07-25T12:23:36Z</time>
      </trkpt>
      <trkpt lat="43.99241" lon="4.45864">
        <ele>136.64465332031</ele>
        <time>2011-07-25T12:24:10Z</time>
      </trkpt>
      <trkpt lat="43.99277" lon="4.45894">
        <ele>143.85437011719</ele>
        <time>2011-07-25T12:24:54Z</time>
      </trkpt>
      <trkpt lat="43.99318" lon="4.4592">
        <ele>149.1416015625</ele>
        <time>2011-07-25T12:33:19Z</time>
      </trkpt>
      <trkpt lat="43.99364" lon="4.45915">
        <ele>147.21899414062</ele>
        <time>2011-07-25T12:33:39Z</time>
      </trkpt>
      <trkpt lat="43.99412" lon="4.45901">
        <ele>139.0478515625</ele>
        <time>2011-07-25T12:33:46Z</time>
      </trkpt>
      <trkpt lat="43.99461" lon="4.45887">
        <ele>134.2412109375</ele>
        <time>2011-07-25T12:33:52Z</time>
      </trkpt>
      <trkpt lat="43.99509" lon="4.45875">
        <ele>137.12524414062</ele>
        <time>2011-07-25T12:33:59Z</time>
      </trkpt>
      <trkpt lat="43.99556" lon="4.45871">
        <ele>141.45104980469</ele>
        <time>2011-07-25T12:34:10Z</time>
      </trkpt>
      <trkpt lat="43.99602" lon="4.45874">
        <ele>144.81579589844</ele>
        <time>2011-07-25T12:34:25Z</time>
      </trkpt>
      <trkpt lat="43.9965" lon="4.45882">
        <ele>148.18041992188</ele>
        <time>2011-07-25T12:34:42Z</time>
      </trkpt>
      <trkpt lat="43.99691" lon="4.45904">
        <ele>150.58361816406</ele>
        <time>2011-07-25T12:35:00Z</time>
      </trkpt>
      <trkpt lat="43.99732" lon="4.45935">
        <ele>152.98693847656</ele>
        <time>2011-07-25T12:35:18Z</time>
      </trkpt>
      <trkpt lat="43.99772" lon="4.45948">
        <ele>155.39025878906</ele>
        <time>2011-07-25T12:35:36Z</time>
      </trkpt>
      <trkpt lat="43.99817" lon="4.45956">
        <ele>156.3515625</ele>
        <time>2011-07-25T12:35:54Z</time>
      </trkpt>
      <trkpt lat="43.99864" lon="4.45969">
        <ele>157.79357910156</ele>
        <time>2011-07-25T12:36:13Z</time>
      </trkpt>
      <trkpt lat="43.99906" lon="4.45989">
        <ele>157.79357910156</ele>
        <time>2011-07-25T12:37:43Z</time>
      </trkpt>
      <trkpt lat="43.99953" lon="4.45998">
        <ele>157.79357910156</ele>
        <time>2011-07-25T12:38:01Z</time>
      </trkpt>
      <trkpt lat="43.99998" lon="4.46021">
        <ele>159.23547363281</ele>
        <time>2011-07-25T12:38:18Z</time>
      </trkpt>
      <trkpt lat="44.00045" lon="4.46031">
        <ele>159.71618652344</ele>
        <time>2011-07-25T12:38:34Z</time>
      </trkpt>
      <trkpt lat="44.00091" lon="4.46049">
        <ele>161.158203125</ele>
        <time>2011-07-25T12:38:50Z</time>
      </trkpt>
      <trkpt lat="44.00126" lon="4.46091">
        <ele>162.60009765625</ele>
        <time>2011-07-25T12:39:06Z</time>
      </trkpt>
      <trkpt lat="44.00165" lon="4.46125">
        <ele>163.5615234375</ele>
        <time>2011-07-25T12:39:22Z</time>
      </trkpt>
      <trkpt lat="44.00203" lon="4.46159">
        <ele>165.00341796875</ele>
        <time>2011-07-25T12:39:38Z</time>
      </trkpt>
      <trkpt lat="44.00247" lon="4.46155">
        <ele>164.52270507812</ele>
        <time>2011-07-25T12:39:53Z</time>
      </trkpt>
      <trkpt lat="44.0029" lon="4.46134">
        <ele>163.08081054688</ele>
        <time>2011-07-25T12:40:05Z</time>
      </trkpt>
      <trkpt lat="44.00337" lon="4.46123">
        <ele>159.23547363281</ele>
        <time>2011-07-25T12:40:16Z</time>
      </trkpt>
      <trkpt lat="44.00383" lon="4.46106">
        <ele>154.42895507812</ele>
        <time>2011-07-25T12:40:27Z</time>
      </trkpt>
      <trkpt lat="44.00426" lon="4.46088">
        <ele>146.73840332031</ele>
        <time>2011-07-25T12:40:38Z</time>
      </trkpt>
      <trkpt lat="44.00425" lon="4.46036">
        <ele>139.52844238281</ele>
        <time>2011-07-25T12:40:49Z</time>
      </trkpt>
      <trkpt lat="44.00416" lon="4.45977">
        <ele>138.56726074219</ele>
        <time>2011-07-25T12:40:58Z</time>
      </trkpt>
      <trkpt lat="44.0038" lon="4.45942">
        <ele>142.89306640625</ele>
        <time>2011-07-25T12:41:15Z</time>
      </trkpt>
      <trkpt lat="44.00404" lon="4.45925">
        <ele>146.73840332031</ele>
        <time>2011-07-25T12:41:55Z</time>
      </trkpt>
      <trkpt lat="44.00447" lon="4.45931">
        <ele>150.58361816406</ele>
        <time>2011-07-25T12:42:39Z</time>
      </trkpt>
      <trkpt lat="44.00493" lon="4.45951">
        <ele>153.94836425781</ele>
        <time>2011-07-25T12:43:02Z</time>
      </trkpt>
      <trkpt lat="44.00536" lon="4.45948">
        <ele>157.79357910156</ele>
        <time>2011-07-25T12:43:23Z</time>
      </trkpt>
      <trkpt lat="44.00569" lon="4.45912">
        <ele>160.19689941406</ele>
        <time>2011-07-25T12:44:07Z</time>
      </trkpt>
      <trkpt lat="44.00582" lon="4.45851">
        <ele>157.79357910156</ele>
        <time>2011-07-25T12:44:23Z</time>
      </trkpt>
      <trkpt lat="44.0055" lon="4.45813">
        <ele>160.67749023438</ele>
        <time>2011-07-25T12:44:39Z</time>
      </trkpt>
      <trkpt lat="44.00531" lon="4.45756">
        <ele>164.52270507812</ele>
        <time>2011-07-25T12:44:59Z</time>
      </trkpt>
      <trkpt lat="44.00537" lon="4.45693">
        <ele>166.4453125</ele>
        <time>2011-07-25T12:45:46Z</time>
      </trkpt>
      <trkpt lat="44.00551" lon="4.45633">
        <ele>168.36804199219</ele>
        <time>2011-07-25T12:46:08Z</time>
      </trkpt>
      <trkpt lat="44.00547" lon="4.45574">
        <ele>169.81005859375</ele>
        <time>2011-07-25T12:46:34Z</time>
      </trkpt>
      <trkpt lat="44.00517" lon="4.45523">
        <ele>168.36804199219</ele>
        <time>2011-07-25T12:46:50Z</time>
      </trkpt>
      <trkpt lat="44.00498" lon="4.45476">
        <ele>167.88732910156</ele>
        <time>2011-07-25T12:47:04Z</time>
      </trkpt>
      <trkpt lat="44.00476" lon="4.4553">
        <ele>167.40673828125</ele>
        <time>2011-07-25T12:47:22Z</time>
      </trkpt>
      <trkpt lat="44.00454" lon="4.45585">
        <ele>165.48413085938</ele>
        <time>2011-07-25T12:47:37Z</time>
      </trkpt>
      <trkpt lat="44.00412" lon="4.45609">
        <ele>161.158203125</ele>
        <time>2011-07-25T12:47:48Z</time>
      </trkpt>
      <trkpt lat="44.00351" lon="4.45635">
        <ele>157.79357910156</ele>
        <time>2011-07-25T12:47:59Z</time>
      </trkpt>
      <trkpt lat="44.00361" lon="4.45582">
        <ele>160.67749023438</ele>
        <time>2011-07-25T12:48:21Z</time>
      </trkpt>
      <trkpt lat="44.00362" lon="4.4552">
        <ele>164.04211425781</ele>
        <time>2011-07-25T12:48:58Z</time>
      </trkpt>
      <trkpt lat="44.00348" lon="4.4546">
        <ele>161.63891601562</ele>
        <time>2011-07-25T12:49:14Z</time>
      </trkpt>
      <trkpt lat="44.00332" lon="4.45401">
        <ele>162.11950683594</ele>
        <time>2011-07-25T12:49:32Z</time>
      </trkpt>
      <trkpt lat="44.00371" lon="4.45367">
        <ele>163.08081054688</ele>
        <time>2011-07-25T12:49:56Z</time>
      </trkpt>
      <trkpt lat="44.00417" lon="4.45363">
        <ele>162.11950683594</ele>
        <time>2011-07-25T12:50:16Z</time>
      </trkpt>
      <trkpt lat="44.0042" lon="4.45314">
        <ele>162.60009765625</ele>
        <time>2011-07-25T12:50:41Z</time>
      </trkpt>
      <trkpt lat="44.00437" lon="4.45261">
        <ele>161.158203125</ele>
        <time>2011-07-25T12:53:27Z</time>
      </trkpt>
      <trkpt lat="44.00471" lon="4.45219">
        <ele>159.23547363281</ele>
        <time>2011-07-25T12:53:50Z</time>
      </trkpt>
      <trkpt lat="44.00436" lon="4.45184">
        <ele>161.63891601562</ele>
        <time>2011-07-25T12:54:12Z</time>
      </trkpt>
      <trkpt lat="44.00396" lon="4.45158">
        <ele>165.48413085938</ele>
        <time>2011-07-25T12:54:34Z</time>
      </trkpt>
      <trkpt lat="44.00348" lon="4.4515">
        <ele>166.4453125</ele>
        <time>2011-07-25T12:54:55Z</time>
      </trkpt>
      <trkpt lat="44.00303" lon="4.4514">
        <ele>166.92602539062</ele>
        <time>2011-07-25T12:55:17Z</time>
      </trkpt>
      <trkpt lat="44.00255" lon="4.45139">
        <ele>167.40673828125</ele>
        <time>2011-07-25T12:55:32Z</time>
      </trkpt>
      <trkpt lat="44.00211" lon="4.45147">
        <ele>167.88732910156</ele>
        <time>2011-07-25T12:55:46Z</time>
      </trkpt>
      <trkpt lat="44.00166" lon="4.45165">
        <ele>167.88732910156</ele>
        <time>2011-07-25T12:56:00Z</time>
      </trkpt>
      <trkpt lat="44.00119" lon="4.45176">
        <ele>166.92602539062</ele>
        <time>2011-07-25T12:56:14Z</time>
      </trkpt>
      <trkpt lat="44.00073" lon="4.45177">
        <ele>165.48413085938</ele>
        <time>2011-07-25T12:56:29Z</time>
      </trkpt>
      <trkpt lat="44.00031" lon="4.45155">
        <ele>164.52270507812</ele>
        <time>2011-07-25T12:57:34Z</time>
      </trkpt>
      <trkpt lat="43.99982" lon="4.4517">
        <ele>163.08081054688</ele>
        <time>2011-07-25T12:57:56Z</time>
      </trkpt>
      <trkpt lat="43.99935" lon="4.4516">
        <ele>160.67749023438</ele>
        <time>2011-07-25T12:58:08Z</time>
      </trkpt>
      <trkpt lat="43.99893" lon="4.45141">
        <ele>159.71618652344</ele>
        <time>2011-07-25T12:58:18Z</time>
      </trkpt>
      <trkpt lat="43.99846" lon="4.45137">
        <ele>157.79357910156</ele>
        <time>2011-07-25T12:58:27Z</time>
      </trkpt>
      <trkpt lat="43.99799" lon="4.45139">
        <ele>156.3515625</ele>
        <time>2011-07-25T12:58:35Z</time>
      </trkpt>
      <trkpt lat="43.99752" lon="4.45139">
        <ele>152.98693847656</ele>
        <time>2011-07-25T12:58:43Z</time>
      </trkpt>
      <trkpt lat="43.99705" lon="4.45136">
        <ele>150.58361816406</ele>
        <time>2011-07-25T12:58:50Z</time>
      </trkpt>
      <trkpt lat="43.99653" lon="4.45131">
        <ele>146.73840332031</ele>
        <time>2011-07-25T12:58:57Z</time>
      </trkpt>
      <trkpt lat="43.99604" lon="4.4513">
        <ele>143.37365722656</ele>
        <time>2011-07-25T12:59:04Z</time>
      </trkpt>
      <trkpt lat="43.99557" lon="4.45137">
        <ele>139.0478515625</ele>
        <time>2011-07-25T12:59:10Z</time>
      </trkpt>
      <trkpt lat="43.9951" lon="4.45146">
        <ele>137.60583496094</ele>
        <time>2011-07-25T12:59:19Z</time>
      </trkpt>
      <trkpt lat="43.99465" lon="4.4515">
        <ele>134.2412109375</ele>
        <time>2011-07-25T12:59:30Z</time>
      </trkpt>
      <trkpt lat="43.99419" lon="4.4515">
        <ele>129.43469238281</ele>
        <time>2011-07-25T12:59:41Z</time>
      </trkpt>
      <trkpt lat="43.99377" lon="4.4515">
        <ele>126.06994628906</ele>
        <time>2011-07-25T13:00:11Z</time>
      </trkpt>
      <trkpt lat="43.9937" lon="4.45124">
        <ele>123.18615722656</ele>
        <time>2011-07-25T13:00:46Z</time>
      </trkpt>
      <trkpt lat="43.99388" lon="4.45063">
        <ele>121.26354980469</ele>
        <time>2011-07-25T13:01:02Z</time>
      </trkpt>
      <trkpt lat="43.99408" lon="4.45005">
        <ele>121.744140625</ele>
        <time>2011-07-25T13:01:24Z</time>
      </trkpt>
      <trkpt lat="43.99387" lon="4.44963">
        <ele>118.86010742188</ele>
        <time>2011-07-25T13:01:38Z</time>
      </trkpt>
      <trkpt lat="43.99383" lon="4.44901">
        <ele>115.49560546875</ele>
        <time>2011-07-25T13:01:53Z</time>
      </trkpt>
      <trkpt lat="43.99341" lon="4.44868">
        <ele>108.76623535156</ele>
        <time>2011-07-25T13:02:10Z</time>
      </trkpt>
      <trkpt lat="43.99299" lon="4.44835">
        <ele>103.47900390625</ele>
        <time>2011-07-25T13:02:17Z</time>
      </trkpt>
      <trkpt lat="43.99269" lon="4.44789">
        <ele>101.07568359375</ele>
        <time>2011-07-25T13:02:26Z</time>
      </trkpt>
      <trkpt lat="43.99277" lon="4.44735">
        <ele>95.307739257812</ele>
        <time>2011-07-25T13:03:20Z</time>
      </trkpt>
      <trkpt lat="43.99248" lon="4.44722">
        <ele>91.943237304688</ele>
        <time>2011-07-25T13:04:09Z</time>
      </trkpt>
      <trkpt lat="43.9922" lon="4.44667">
        <ele>88.578735351562</ele>
        <time>2011-07-25T13:04:31Z</time>
      </trkpt>
      <trkpt lat="43.99176" lon="4.44639">
        <ele>86.17529296875</ele>
        <time>2011-07-25T13:04:49Z</time>
      </trkpt>
      <trkpt lat="43.99175" lon="4.44575">
        <ele>84.7333984375</ele>
        <time>2011-07-25T13:05:07Z</time>
      </trkpt>
      <trkpt lat="43.99192" lon="4.44513">
        <ele>84.7333984375</ele>
        <time>2011-07-25T13:05:23Z</time>
      </trkpt>
      <trkpt lat="43.99213" lon="4.44457">
        <ele>84.252685546875</ele>
        <time>2011-07-25T13:05:37Z</time>
      </trkpt>
      <trkpt lat="43.99237" lon="4.44403">
        <ele>84.252685546875</ele>
        <time>2011-07-25T13:05:52Z</time>
      </trkpt>
      <trkpt lat="43.99256" lon="4.44342">
        <ele>82.810791015625</ele>
        <time>2011-07-25T13:06:05Z</time>
      </trkpt>
      <trkpt lat="43.99277" lon="4.44281">
        <ele>83.291381835938</ele>
        <time>2011-07-25T13:06:19Z</time>
      </trkpt>
      <trkpt lat="43.9931" lon="4.44232">
        <ele>82.810791015625</ele>
        <time>2011-07-25T13:06:33Z</time>
      </trkpt>
      <trkpt lat="43.99336" lon="4.44179">
        <ele>82.810791015625</ele>
        <time>2011-07-25T13:06:46Z</time>
      </trkpt>
      <trkpt lat="43.99362" lon="4.44124">
        <ele>82.810791015625</ele>
        <time>2011-07-25T13:06:59Z</time>
      </trkpt>
      <trkpt lat="43.99393" lon="4.44076">
        <ele>82.810791015625</ele>
        <time>2011-07-25T13:07:12Z</time>
      </trkpt>
      <trkpt lat="43.99411" lon="4.44036">
        <ele>82.330078125</ele>
        <time>2011-07-25T13:07:24Z</time>
      </trkpt>
      <trkpt lat="43.99436" lon="4.43963">
        <ele>82.810791015625</ele>
        <time>2011-07-25T13:07:36Z</time>
      </trkpt>
      <trkpt lat="43.99461" lon="4.43909">
        <ele>83.291381835938</ele>
        <time>2011-07-25T13:07:48Z</time>
      </trkpt>
      <trkpt lat="43.99486" lon="4.43856">
        <ele>83.77197265625</ele>
        <time>2011-07-25T13:08:00Z</time>
      </trkpt>
      <trkpt lat="43.99513" lon="4.43804">
        <ele>83.291381835938</ele>
        <time>2011-07-25T13:08:13Z</time>
      </trkpt>
      <trkpt lat="43.99542" lon="4.43746">
        <ele>84.252685546875</ele>
        <time>2011-07-25T13:08:27Z</time>
      </trkpt>
      <trkpt lat="43.99576" lon="4.437">
        <ele>84.7333984375</ele>
        <time>2011-07-25T13:08:39Z</time>
      </trkpt>
      <trkpt lat="43.9961" lon="4.43655">
        <ele>85.694580078125</ele>
        <time>2011-07-25T13:08:51Z</time>
      </trkpt>
      <trkpt lat="43.99645" lon="4.4361">
        <ele>86.656005859375</ele>
        <time>2011-07-25T13:09:03Z</time>
      </trkpt>
      <trkpt lat="43.99677" lon="4.43557">
        <ele>86.656005859375</ele>
        <time>2011-07-25T13:09:15Z</time>
      </trkpt>
      <trkpt lat="43.997" lon="4.435">
        <ele>87.136596679688</ele>
        <time>2011-07-25T13:09:26Z</time>
      </trkpt>
      <trkpt lat="43.99716" lon="4.43439">
        <ele>87.6171875</ele>
        <time>2011-07-25T13:09:37Z</time>
      </trkpt>
      <trkpt lat="43.99732" lon="4.43378">
        <ele>89.059326171875</ele>
        <time>2011-07-25T13:09:49Z</time>
      </trkpt>
      <trkpt lat="43.99747" lon="4.43316">
        <ele>88.098022460938</ele>
        <time>2011-07-25T13:09:59Z</time>
      </trkpt>
      <trkpt lat="43.99762" lon="4.43255">
        <ele>88.098022460938</ele>
        <time>2011-07-25T13:10:08Z</time>
      </trkpt>
      <trkpt lat="43.99762" lon="4.43194">
        <ele>88.098022460938</ele>
        <time>2011-07-25T13:10:18Z</time>
      </trkpt>
      <trkpt lat="43.998" lon="4.43162">
        <ele>90.98193359375</ele>
        <time>2011-07-25T13:10:32Z</time>
      </trkpt>
      <trkpt lat="43.99844" lon="4.43175">
        <ele>92.423950195312</ele>
        <time>2011-07-25T13:10:44Z</time>
      </trkpt>
      <trkpt lat="43.99882" lon="4.43142">
        <ele>96.749877929688</ele>
        <time>2011-07-25T13:10:57Z</time>
      </trkpt>
      <trkpt lat="43.99914" lon="4.43126">
        <ele>96.749877929688</ele>
        <time>2011-07-25T13:11:14Z</time>
      </trkpt>
      <trkpt lat="43.99902" lon="4.4319">
        <ele>97.711181640625</ele>
        <time>2011-07-25T13:11:34Z</time>
      </trkpt>
      <trkpt lat="43.99918" lon="4.43248">
        <ele>99.153076171875</ele>
        <time>2011-07-25T13:11:50Z</time>
      </trkpt>
      <trkpt lat="43.99957" lon="4.43282">
        <ele>102.99829101562</ele>
        <time>2011-07-25T13:12:06Z</time>
      </trkpt>
      <trkpt lat="43.99997" lon="4.43321">
        <ele>104.92102050781</ele>
        <time>2011-07-25T13:12:24Z</time>
      </trkpt>
      <trkpt lat="44.00009" lon="4.43384">
        <ele>106.36303710938</ele>
        <time>2011-07-25T13:12:41Z</time>
      </trkpt>
      <trkpt lat="44.00046" lon="4.43411">
        <ele>113.57299804688</ele>
        <time>2011-07-25T13:13:11Z</time>
      </trkpt>
      <trkpt lat="44.0009" lon="4.4343">
        <ele>120.78283691406</ele>
        <time>2011-07-25T13:15:38Z</time>
      </trkpt>
      <trkpt lat="44.00135" lon="4.43441">
        <ele>126.55065917969</ele>
        <time>2011-07-25T13:16:08Z</time>
      </trkpt>
      <trkpt lat="44.00181" lon="4.43454">
        <ele>132.31860351562</ele>
        <time>2011-07-25T13:16:39Z</time>
      </trkpt>
      <trkpt lat="44.00226" lon="4.43462">
        <ele>136.64465332031</ele>
        <time>2011-07-25T13:17:09Z</time>
      </trkpt>
      <trkpt lat="44.00272" lon="4.43467">
        <ele>140.97045898438</ele>
        <time>2011-07-25T13:17:39Z</time>
      </trkpt>
      <trkpt lat="44.00314" lon="4.43456">
        <ele>142.89306640625</ele>
        <time>2011-07-25T13:19:32Z</time>
      </trkpt>
      <trkpt lat="44.00362" lon="4.43469">
        <ele>142.41247558594</ele>
        <time>2011-07-25T13:20:35Z</time>
      </trkpt>
      <trkpt lat="44.00405" lon="4.435">
        <ele>143.85437011719</ele>
        <time>2011-07-25T13:20:54Z</time>
      </trkpt>
      <trkpt lat="44.00447" lon="4.43528">
        <ele>144.81579589844</ele>
        <time>2011-07-25T13:21:14Z</time>
      </trkpt>
      <trkpt lat="44.00489" lon="4.43552">
        <ele>147.21899414062</ele>
        <time>2011-07-25T13:21:33Z</time>
      </trkpt>
      <trkpt lat="44.00533" lon="4.43568">
        <ele>150.10302734375</ele>
        <time>2011-07-25T13:21:53Z</time>
      </trkpt>
      <trkpt lat="44.00579" lon="4.4357">
        <ele>151.544921875</ele>
        <time>2011-07-25T13:22:15Z</time>
      </trkpt>
      <trkpt lat="44.00624" lon="4.43588">
        <ele>152.98693847656</ele>
        <time>2011-07-25T13:22:33Z</time>
      </trkpt>
      <trkpt lat="44.00668" lon="4.43606">
        <ele>153.94836425781</ele>
        <time>2011-07-25T13:22:50Z</time>
      </trkpt>
      <trkpt lat="44.00715" lon="4.43611">
        <ele>154.42895507812</ele>
        <time>2011-07-25T13:23:05Z</time>
      </trkpt>
      <trkpt lat="44.00762" lon="4.43606">
        <ele>156.3515625</ele>
        <time>2011-07-25T13:23:20Z</time>
      </trkpt>
      <trkpt lat="44.00808" lon="4.43611">
        <ele>157.79357910156</ele>
        <time>2011-07-25T13:23:35Z</time>
      </trkpt>
      <trkpt lat="44.00852" lon="4.43624">
        <ele>159.71618652344</ele>
        <time>2011-07-25T13:23:52Z</time>
      </trkpt>
      <trkpt lat="44.00896" lon="4.43619">
        <ele>161.158203125</ele>
        <time>2011-07-25T13:24:09Z</time>
      </trkpt>
      <trkpt lat="44.00916" lon="4.43562">
        <ele>162.11950683594</ele>
        <time>2011-07-25T13:24:26Z</time>
      </trkpt>
      <trkpt lat="44.00933" lon="4.43504">
        <ele>166.92602539062</ele>
        <time>2011-07-25T13:25:08Z</time>
      </trkpt>
      <trkpt lat="44.00966" lon="4.43465">
        <ele>165.96472167969</ele>
        <time>2011-07-25T13:25:25Z</time>
      </trkpt>
      <trkpt lat="44.00999" lon="4.43421">
        <ele>165.48413085938</ele>
        <time>2011-07-25T13:25:40Z</time>
      </trkpt>
      <trkpt lat="44.01028" lon="4.43375">
        <ele>165.48413085938</ele>
        <time>2011-07-25T13:26:02Z</time>
      </trkpt>
      <trkpt lat="44.01018" lon="4.4331">
        <ele>160.67749023438</ele>
        <time>2011-07-25T13:26:16Z</time>
      </trkpt>
      <trkpt lat="44.01003" lon="4.43247">
        <ele>156.3515625</ele>
        <time>2011-07-25T13:26:28Z</time>
      </trkpt>
      <trkpt lat="44.01024" lon="4.43191">
        <ele>157.31286621094</ele>
        <time>2011-07-25T13:26:41Z</time>
      </trkpt>
      <trkpt lat="44.0106" lon="4.43158">
        <ele>159.71618652344</ele>
        <time>2011-07-25T13:26:58Z</time>
      </trkpt>
      <trkpt lat="44.01093" lon="4.43115">
        <ele>158.75476074219</ele>
        <time>2011-07-25T13:27:41Z</time>
      </trkpt>
      <trkpt lat="44.01102" lon="4.43051">
        <ele>156.83215332031</ele>
        <time>2011-07-25T13:28:02Z</time>
      </trkpt>
      <trkpt lat="44.01127" lon="4.4299">
        <ele>149.1416015625</ele>
        <time>2011-07-25T13:28:12Z</time>
      </trkpt>
      <trkpt lat="44.01154" lon="4.42934">
        <ele>144.33520507812</ele>
        <time>2011-07-25T13:28:19Z</time>
      </trkpt>
      <trkpt lat="44.01183" lon="4.42873">
        <ele>136.64465332031</ele>
        <time>2011-07-25T13:28:25Z</time>
      </trkpt>
      <trkpt lat="44.01207" lon="4.42814">
        <ele>135.20251464844</ele>
        <time>2011-07-25T13:28:32Z</time>
      </trkpt>
      <trkpt lat="44.01164" lon="4.42792">
        <ele>132.31860351562</ele>
        <time>2011-07-25T13:28:42Z</time>
      </trkpt>
      <trkpt lat="44.01122" lon="4.42816">
        <ele>132.79931640625</ele>
        <time>2011-07-25T13:28:52Z</time>
      </trkpt>
      <trkpt lat="44.01075" lon="4.42801">
        <ele>130.39599609375</ele>
        <time>2011-07-25T13:29:02Z</time>
      </trkpt>
      <trkpt lat="44.01042" lon="4.42765">
        <ele>128.9541015625</ele>
        <time>2011-07-25T13:29:11Z</time>
      </trkpt>
      <trkpt lat="44.01052" lon="4.42734">
        <ele>120.78283691406</ele>
        <time>2011-07-25T13:29:35Z</time>
      </trkpt>
      <trkpt lat="44.01097" lon="4.4274">
        <ele>113.57299804688</ele>
        <time>2011-07-25T13:29:59Z</time>
      </trkpt>
      <trkpt lat="44.01128" lon="4.42713">
        <ele>105.88244628906</ele>
        <time>2011-07-25T13:30:42Z</time>
      </trkpt>
      <trkpt lat="44.01173" lon="4.42698">
        <ele>98.19189453125</ele>
        <time>2011-07-25T13:31:22Z</time>
      </trkpt>
      <trkpt lat="44.01224" lon="4.42684">
        <ele>90.98193359375</ele>
        <time>2011-07-25T13:31:41Z</time>
      </trkpt>
      <trkpt lat="44.0126" lon="4.42659">
        <ele>81.849365234375</ele>
        <time>2011-07-25T13:31:57Z</time>
      </trkpt>
      <trkpt lat="44.01315" lon="4.42623">
        <ele>73.67822265625</ele>
        <time>2011-07-25T13:32:15Z</time>
      </trkpt>
      <trkpt lat="44.01352" lon="4.42653">
        <ele>73.67822265625</ele>
        <time>2011-07-25T13:36:27Z</time>
      </trkpt>
      <trkpt lat="44.01372" lon="4.42706">
        <ele>74.639526367188</ele>
        <time>2011-07-25T13:36:47Z</time>
      </trkpt>
      <trkpt lat="44.01382" lon="4.4275">
        <ele>74.158813476562</ele>
        <time>2011-07-25T13:37:08Z</time>
      </trkpt>
      <trkpt lat="44.01457" lon="4.42769">
        <ele>74.158813476562</ele>
        <time>2011-07-25T13:37:26Z</time>
      </trkpt>
      <trkpt lat="44.01476" lon="4.42829">
        <ele>74.639526367188</ele>
        <time>2011-07-25T13:37:44Z</time>
      </trkpt>
      <trkpt lat="44.01489" lon="4.42891">
        <ele>75.120239257812</ele>
        <time>2011-07-25T13:38:00Z</time>
      </trkpt>
      <trkpt lat="44.01501" lon="4.42925">
        <ele>78.965454101562</ele>
        <time>2011-07-25T13:45:17Z</time>
      </trkpt>
    </trkseg>
  </trk>
</gpx>